<?xml version='1.0' encoding='UTF-8'?>
<gpx version="1.1" creator="https://www.komoot.de" xmlns="http://www.topografix.com/GPX/1/1" xmlns:xsi="http://www.w3.org/2001/XMLSchema-instance" xsi:schemaLocation="http://www.topografix.com/GPX/1/1 http://www.topografix.com/GPX/1/1/gpx.xsd">
  <metadata>
    <name>ADFC-Ri-F-2025-07-29: nach Herzebrock</name>
    <author>
      <link href="https://www.komoot.de">
        <text>komoot</text>
        <type>text/html</type>
      </link>
    </author>
  </metadata>
  <wpt lat="51.836126" lon="8.397798">
    <name>Druffel Esel-Schutzgebiet</name>
    <sym>Flag, Blue</sym>
  </wpt>
  <wpt lat="51.869758" lon="8.348950">
    <name>Kleiner Wasserfall am Gut Schledebrück</name>
    <sym>Flag, Blue</sym>
  </wpt>
  <wpt lat="51.884110" lon="8.297430">
    <name>Bronzezeitliches Gräberfeld und Siedlungsstätte der frühen Eisenzeit</name>
    <sym>Flag, Blue</sym>
  </wpt>
  <wpt lat="51.885253" lon="8.245927">
    <name>Klostergarten</name>
    <sym>Flag, Blue</sym>
  </wpt>
  <wpt lat="51.884637" lon="8.245247">
    <name>Benediktinerinnenkloster Herzebrock</name>
    <sym>Flag, Blue</sym>
  </wpt>
  <wpt lat="51.849067" lon="8.261057">
    <name>Bank in Hambusch</name>
    <sym>Picnic Area</sym>
  </wpt>
  <wpt lat="51.852367" lon="8.289698">
    <name>Kleine Straße in Rheda</name>
    <sym>Flag, Blue</sym>
  </wpt>
  <wpt lat="51.851821" lon="8.292374">
    <name>Radwegweiser nach Oelde, Rietberg und Wiedenbrück</name>
    <sym>Flag, Blue</sym>
  </wpt>
  <wpt lat="51.851520" lon="8.293873">
    <name>Schloss Rheda und Wassermühle</name>
    <sym>Flag, Blue</sym>
  </wpt>
  <wpt lat="51.850793" lon="8.295845">
    <name>Die Vorburg</name>
    <sym>Flag, Blue</sym>
  </wpt>
  <wpt lat="51.849754" lon="8.302197">
    <name>Blick auf Schloss Rheda über die Wiese</name>
    <sym>Flag, Blue</sym>
  </wpt>
  <wpt lat="51.811626" lon="8.413093">
    <name>Planetenweg und Skulpturenpark am Bibeldorf Rietberg</name>
    <sym>Flag, Blue</sym>
  </wpt>
  <trk>
    <name>ADFC-Ri-F-2025-07-29: nach Herzebrock</name>
    <type>touring_bicycle</type>
    <trkseg>
      <trkpt lat="51.818437" lon="8.430209">
        <ele>77.902046</ele>
        <time>2026-08-05T13:19:27.484Z</time>
      </trkpt>
      <trkpt lat="51.818456" lon="8.430055">
        <ele>77.902046</ele>
        <time>2026-08-05T13:19:30.085Z</time>
      </trkpt>
      <trkpt lat="51.818384" lon="8.430046">
        <ele>77.902046</ele>
        <time>2026-08-05T13:19:32.561Z</time>
      </trkpt>
      <trkpt lat="51.818329" lon="8.430039">
        <ele>77.902046</ele>
        <time>2026-08-05T13:19:34.418Z</time>
      </trkpt>
      <trkpt lat="51.818331" lon="8.429951">
        <ele>77.902046</ele>
        <time>2026-08-05T13:19:35.812Z</time>
      </trkpt>
      <trkpt lat="51.818332" lon="8.429853">
        <ele>77.902046</ele>
        <time>2026-08-05T13:19:37.876Z</time>
      </trkpt>
      <trkpt lat="51.818488" lon="8.429866">
        <ele>77.902046</ele>
        <time>2026-08-05T13:19:43.144Z</time>
      </trkpt>
      <trkpt lat="51.818647" lon="8.428769">
        <ele>77.814869</ele>
        <time>2026-08-05T13:20:13.029Z</time>
      </trkpt>
      <trkpt lat="51.818774" lon="8.428103">
        <ele>77.686625</ele>
        <time>2026-08-05T13:20:31.416Z</time>
      </trkpt>
      <trkpt lat="51.818892" lon="8.427613">
        <ele>77.589865</ele>
        <time>2026-08-05T13:20:45.234Z</time>
      </trkpt>
      <trkpt lat="51.819292" lon="8.426371">
        <ele>77.367466</ele>
        <time>2026-08-05T13:21:22.775Z</time>
      </trkpt>
      <trkpt lat="51.819679" lon="8.425166">
        <ele>77.373344</ele>
        <time>2026-08-05T13:22:00.076Z</time>
      </trkpt>
      <trkpt lat="51.819718" lon="8.425042">
        <ele>77.373946</ele>
        <time>2026-08-05T13:22:02.514Z</time>
      </trkpt>
      <trkpt lat="51.821049" lon="8.420895">
        <ele>77.611235</ele>
        <time>2026-08-05T13:23:21.072Z</time>
      </trkpt>
      <trkpt lat="51.821342" lon="8.419785">
        <ele>77.707901</ele>
        <time>2026-08-05T13:23:41.446Z</time>
      </trkpt>
      <trkpt lat="51.821478" lon="8.419153">
        <ele>77.761498</ele>
        <time>2026-08-05T13:23:52.781Z</time>
      </trkpt>
      <trkpt lat="51.821678" lon="8.418008">
        <ele>77.847311</ele>
        <time>2026-08-05T13:24:12.919Z</time>
      </trkpt>
      <trkpt lat="51.821803" lon="8.416947">
        <ele>77.919054</ele>
        <time>2026-08-05T13:24:31.301Z</time>
      </trkpt>
      <trkpt lat="51.821929" lon="8.414807">
        <ele>77.941938</ele>
        <time>2026-08-05T13:25:06.993Z</time>
      </trkpt>
      <trkpt lat="51.822018" lon="8.413079">
        <ele>77.851984</ele>
        <time>2026-08-05T13:25:34.599Z</time>
      </trkpt>
      <trkpt lat="51.822230" lon="8.408792">
        <ele>77.929371</ele>
        <time>2026-08-05T13:26:46.284Z</time>
      </trkpt>
      <trkpt lat="51.822225" lon="8.405685">
        <ele>77.815562</ele>
        <time>2026-08-05T13:27:38.196Z</time>
      </trkpt>
      <trkpt lat="51.822251" lon="8.405366">
        <ele>77.772084</ele>
        <time>2026-08-05T13:27:43.213Z</time>
      </trkpt>
      <trkpt lat="51.822515" lon="8.403588">
        <ele>77.396766</ele>
        <time>2026-08-05T13:28:11.052Z</time>
      </trkpt>
      <trkpt lat="51.822764" lon="8.401964">
        <ele>76.848460</ele>
        <time>2026-08-05T13:28:36.273Z</time>
      </trkpt>
      <trkpt lat="51.822834" lon="8.401504">
        <ele>76.693219</ele>
        <time>2026-08-05T13:28:43.479Z</time>
      </trkpt>
      <trkpt lat="51.822888" lon="8.401840">
        <ele>76.620845</ele>
        <time>2026-08-05T13:28:48.752Z</time>
      </trkpt>
      <trkpt lat="51.823006" lon="8.401792">
        <ele>76.588926</ele>
        <time>2026-08-05T13:28:51.734Z</time>
      </trkpt>
      <trkpt lat="51.823495" lon="8.401437">
        <ele>76.448321</ele>
        <time>2026-08-05T13:29:05.088Z</time>
      </trkpt>
      <trkpt lat="51.823996" lon="8.401219">
        <ele>76.312220</ele>
        <time>2026-08-05T13:29:18.312Z</time>
      </trkpt>
      <trkpt lat="51.824385" lon="8.401070">
        <ele>76.207351</ele>
        <time>2026-08-05T13:29:28.810Z</time>
      </trkpt>
      <trkpt lat="51.824854" lon="8.400943">
        <ele>76.241834</ele>
        <time>2026-08-05T13:29:41.696Z</time>
      </trkpt>
      <trkpt lat="51.824885" lon="8.400935">
        <ele>76.245861</ele>
        <time>2026-08-05T13:29:42.566Z</time>
      </trkpt>
      <trkpt lat="51.825077" lon="8.400792">
        <ele>76.272977</ele>
        <time>2026-08-05T13:29:48.465Z</time>
      </trkpt>
      <trkpt lat="51.825486" lon="8.400517">
        <ele>76.329797</ele>
        <time>2026-08-05T13:30:00.859Z</time>
      </trkpt>
      <trkpt lat="51.826028" lon="8.400365">
        <ele>76.400366</ele>
        <time>2026-08-05T13:30:16.066Z</time>
      </trkpt>
      <trkpt lat="51.826629" lon="8.400338">
        <ele>76.453728</ele>
        <time>2026-08-05T13:30:32.486Z</time>
      </trkpt>
      <trkpt lat="51.827468" lon="8.400299">
        <ele>76.516670</ele>
        <time>2026-08-05T13:30:55.333Z</time>
      </trkpt>
      <trkpt lat="51.827532" lon="8.400273">
        <ele>76.521618</ele>
        <time>2026-08-05T13:30:57.097Z</time>
      </trkpt>
      <trkpt lat="51.827717" lon="8.400193">
        <ele>76.535978</ele>
        <time>2026-08-05T13:31:03.805Z</time>
      </trkpt>
      <trkpt lat="51.827769" lon="8.400137">
        <ele>76.540662</ele>
        <time>2026-08-05T13:31:05.989Z</time>
      </trkpt>
      <trkpt lat="51.827866" lon="8.399984">
        <ele>76.550821</ele>
        <time>2026-08-05T13:31:10.690Z</time>
      </trkpt>
      <trkpt lat="51.827922" lon="8.399793">
        <ele>76.543239</ele>
        <time>2026-08-05T13:31:15.208Z</time>
      </trkpt>
      <trkpt lat="51.827997" lon="8.399657">
        <ele>76.524768</ele>
        <time>2026-08-05T13:31:19.095Z</time>
      </trkpt>
      <trkpt lat="51.828178" lon="8.399522">
        <ele>76.492089</ele>
        <time>2026-08-05T13:31:25.958Z</time>
      </trkpt>
      <trkpt lat="51.828254" lon="8.399466">
        <ele>76.478396</ele>
        <time>2026-08-05T13:31:28.816Z</time>
      </trkpt>
      <trkpt lat="51.829094" lon="8.398946">
        <ele>76.330928</ele>
        <time>2026-08-05T13:31:59.837Z</time>
      </trkpt>
      <trkpt lat="51.829128" lon="8.398991">
        <ele>76.323725</ele>
        <time>2026-08-05T13:32:01.041Z</time>
      </trkpt>
      <trkpt lat="51.829183" lon="8.398998">
        <ele>76.314679</ele>
        <time>2026-08-05T13:32:02.513Z</time>
      </trkpt>
      <trkpt lat="51.829229" lon="8.398943">
        <ele>76.305301</ele>
        <time>2026-08-05T13:32:04.050Z</time>
      </trkpt>
      <trkpt lat="51.829245" lon="8.398869">
        <ele>76.297357</ele>
        <time>2026-08-05T13:32:05.319Z</time>
      </trkpt>
      <trkpt lat="51.829647" lon="8.398686">
        <ele>76.214126</ele>
        <time>2026-08-05T13:32:15.810Z</time>
      </trkpt>
      <trkpt lat="51.829960" lon="8.398626">
        <ele>76.138127</ele>
        <time>2026-08-05T13:32:23.711Z</time>
      </trkpt>
      <trkpt lat="51.829923" lon="8.398172">
        <ele>76.069889</ele>
        <time>2026-08-05T13:32:30.910Z</time>
      </trkpt>
      <trkpt lat="51.829906" lon="8.397912">
        <ele>76.030929</ele>
        <time>2026-08-05T13:32:37.933Z</time>
      </trkpt>
      <trkpt lat="51.829876" lon="8.397192">
        <ele>75.923396</ele>
        <time>2026-08-05T13:32:57.305Z</time>
      </trkpt>
      <trkpt lat="51.829824" lon="8.396707">
        <ele>75.850045</ele>
        <time>2026-08-05T13:33:10.503Z</time>
      </trkpt>
      <trkpt lat="51.829554" lon="8.394962">
        <ele>75.750983</ele>
        <time>2026-08-05T13:33:59.581Z</time>
      </trkpt>
      <trkpt lat="51.829529" lon="8.394905">
        <ele>75.747764</ele>
        <time>2026-08-05T13:34:01.501Z</time>
      </trkpt>
      <trkpt lat="51.829862" lon="8.394149">
        <ele>75.705017</ele>
        <time>2026-08-05T13:34:16.746Z</time>
      </trkpt>
      <trkpt lat="51.829954" lon="8.394058">
        <ele>75.696983</ele>
        <time>2026-08-05T13:34:19.576Z</time>
      </trkpt>
      <trkpt lat="51.830058" lon="8.394099">
        <ele>75.691140</ele>
        <time>2026-08-05T13:34:22.407Z</time>
      </trkpt>
      <trkpt lat="51.830232" lon="8.394299">
        <ele>75.684836</ele>
        <time>2026-08-05T13:34:28.030Z</time>
      </trkpt>
      <trkpt lat="51.831208" lon="8.396046">
        <ele>75.641848</ele>
        <time>2026-08-05T13:35:06.597Z</time>
      </trkpt>
      <trkpt lat="51.831325" lon="8.396162">
        <ele>75.645226</ele>
        <time>2026-08-05T13:35:10.342Z</time>
      </trkpt>
      <trkpt lat="51.832728" lon="8.396958">
        <ele>75.802854</ele>
        <time>2026-08-05T13:35:51.038Z</time>
      </trkpt>
      <trkpt lat="51.833062" lon="8.397446">
        <ele>75.806432</ele>
        <time>2026-08-05T13:36:03.186Z</time>
      </trkpt>
      <trkpt lat="51.833231" lon="8.397579">
        <ele>75.783363</ele>
        <time>2026-08-05T13:36:08.234Z</time>
      </trkpt>
      <trkpt lat="51.833385" lon="8.397647">
        <ele>75.763767</ele>
        <time>2026-08-05T13:36:12.489Z</time>
      </trkpt>
      <trkpt lat="51.833958" lon="8.397674">
        <ele>75.693397</ele>
        <time>2026-08-05T13:36:27.477Z</time>
      </trkpt>
      <trkpt lat="51.834128" lon="8.397665">
        <ele>75.672518</ele>
        <time>2026-08-05T13:36:31.824Z</time>
      </trkpt>
      <trkpt lat="51.834657" lon="8.397484">
        <ele>75.606291</ele>
        <time>2026-08-05T13:36:45.573Z</time>
      </trkpt>
      <trkpt lat="51.835283" lon="8.397627">
        <ele>75.532282</ele>
        <time>2026-08-05T13:37:01.629Z</time>
      </trkpt>
      <trkpt lat="51.836137" lon="8.397842">
        <ele>75.431108</ele>
        <time>2026-08-05T13:37:23.872Z</time>
      </trkpt>
      <trkpt lat="51.836598" lon="8.397903">
        <ele>75.462342</ele>
        <time>2026-08-05T13:37:36.864Z</time>
      </trkpt>
      <trkpt lat="51.836779" lon="8.397893">
        <ele>75.524179</ele>
        <time>2026-08-05T13:37:42.121Z</time>
      </trkpt>
      <trkpt lat="51.838144" lon="8.397550">
        <ele>75.995830</ele>
        <time>2026-08-05T13:38:22.075Z</time>
      </trkpt>
      <trkpt lat="51.838474" lon="8.397645">
        <ele>75.996117</ele>
        <time>2026-08-05T13:38:31.049Z</time>
      </trkpt>
      <trkpt lat="51.839050" lon="8.397844">
        <ele>75.961478</ele>
        <time>2026-08-05T13:38:46.678Z</time>
      </trkpt>
      <trkpt lat="51.839132" lon="8.397886">
        <ele>75.956420</ele>
        <time>2026-08-05T13:38:48.884Z</time>
      </trkpt>
      <trkpt lat="51.839317" lon="8.396652">
        <ele>75.910278</ele>
        <time>2026-08-05T13:39:08.700Z</time>
      </trkpt>
      <trkpt lat="51.839508" lon="8.395441">
        <ele>75.754537</ele>
        <time>2026-08-05T13:39:29.857Z</time>
      </trkpt>
      <trkpt lat="51.839556" lon="8.395130">
        <ele>75.712471</ele>
        <time>2026-08-05T13:39:34.950Z</time>
      </trkpt>
      <trkpt lat="51.839630" lon="8.394963">
        <ele>75.685503</ele>
        <time>2026-08-05T13:39:38.123Z</time>
      </trkpt>
      <trkpt lat="51.839644" lon="8.394885">
        <ele>75.674844</ele>
        <time>2026-08-05T13:39:39.377Z</time>
      </trkpt>
      <trkpt lat="51.839623" lon="8.394680">
        <ele>75.647576</ele>
        <time>2026-08-05T13:39:42.555Z</time>
      </trkpt>
      <trkpt lat="51.839723" lon="8.394058">
        <ele>75.563234</ele>
        <time>2026-08-05T13:39:52.442Z</time>
      </trkpt>
      <trkpt lat="51.839828" lon="8.393104">
        <ele>75.432421</ele>
        <time>2026-08-05T13:40:07.486Z</time>
      </trkpt>
      <trkpt lat="51.839841" lon="8.392241">
        <ele>75.314493</ele>
        <time>2026-08-05T13:40:20.820Z</time>
      </trkpt>
      <trkpt lat="51.839770" lon="8.391318">
        <ele>75.187429</ele>
        <time>2026-08-05T13:40:35.790Z</time>
      </trkpt>
      <trkpt lat="51.839131" lon="8.386865">
        <ele>75.210948</ele>
        <time>2026-08-05T13:41:52.532Z</time>
      </trkpt>
      <trkpt lat="51.838254" lon="8.380754">
        <ele>74.948186</ele>
        <time>2026-08-05T13:43:34.509Z</time>
      </trkpt>
      <trkpt lat="51.838425" lon="8.380563">
        <ele>74.921691</ele>
        <time>2026-08-05T13:43:39.973Z</time>
      </trkpt>
      <trkpt lat="51.838905" lon="8.380029">
        <ele>74.841612</ele>
        <time>2026-08-05T13:43:54.898Z</time>
      </trkpt>
      <trkpt lat="51.839503" lon="8.379293">
        <ele>74.572766</ele>
        <time>2026-08-05T13:44:13.639Z</time>
      </trkpt>
      <trkpt lat="51.840408" lon="8.379008">
        <ele>74.242832</ele>
        <time>2026-08-05T13:44:36.590Z</time>
      </trkpt>
      <trkpt lat="51.841135" lon="8.378791">
        <ele>74.134633</ele>
        <time>2026-08-05T13:44:55.670Z</time>
      </trkpt>
      <trkpt lat="51.842020" lon="8.378526">
        <ele>74.032753</ele>
        <time>2026-08-05T13:45:19.669Z</time>
      </trkpt>
      <trkpt lat="51.842260" lon="8.378569">
        <ele>74.005419</ele>
        <time>2026-08-05T13:45:26.100Z</time>
      </trkpt>
      <trkpt lat="51.842819" lon="8.378602">
        <ele>74.023892</ele>
        <time>2026-08-05T13:45:41.101Z</time>
      </trkpt>
      <trkpt lat="51.843868" lon="8.378809">
        <ele>74.063961</ele>
        <time>2026-08-05T13:46:09.803Z</time>
      </trkpt>
      <trkpt lat="51.844295" lon="8.378890">
        <ele>74.048541</ele>
        <time>2026-08-05T13:46:21.229Z</time>
      </trkpt>
      <trkpt lat="51.844315" lon="8.378894">
        <ele>74.046518</ele>
        <time>2026-08-05T13:46:21.763Z</time>
      </trkpt>
      <trkpt lat="51.845068" lon="8.378919">
        <ele>73.970890</ele>
        <time>2026-08-05T13:46:41.426Z</time>
      </trkpt>
      <trkpt lat="51.845336" lon="8.377686">
        <ele>73.889537</ele>
        <time>2026-08-05T13:47:02.248Z</time>
      </trkpt>
      <trkpt lat="51.845722" lon="8.375907">
        <ele>73.745343</ele>
        <time>2026-08-05T13:47:32.681Z</time>
      </trkpt>
      <trkpt lat="51.845706" lon="8.375740">
        <ele>73.732419</ele>
        <time>2026-08-05T13:47:35.431Z</time>
      </trkpt>
      <trkpt lat="51.844862" lon="8.373579">
        <ele>73.629517</ele>
        <time>2026-08-05T13:48:17.028Z</time>
      </trkpt>
      <trkpt lat="51.844836" lon="8.373639">
        <ele>73.627862</ele>
        <time>2026-08-05T13:48:18.222Z</time>
      </trkpt>
      <trkpt lat="51.844829" lon="8.373704">
        <ele>73.626373</ele>
        <time>2026-08-05T13:48:19.297Z</time>
      </trkpt>
      <trkpt lat="51.844836" lon="8.373639">
        <ele>73.624883</ele>
        <time>2026-08-05T13:48:20.370Z</time>
      </trkpt>
      <trkpt lat="51.844862" lon="8.373579">
        <ele>73.623229</ele>
        <time>2026-08-05T13:48:21.569Z</time>
      </trkpt>
      <trkpt lat="51.844244" lon="8.372358">
        <ele>73.671156</ele>
        <time>2026-08-05T13:48:47.556Z</time>
      </trkpt>
      <trkpt lat="51.844119" lon="8.371912">
        <ele>73.721745</ele>
        <time>2026-08-05T13:48:55.823Z</time>
      </trkpt>
      <trkpt lat="51.844025" lon="8.371189">
        <ele>73.798064</ele>
        <time>2026-08-05T13:49:08.546Z</time>
      </trkpt>
      <trkpt lat="51.844011" lon="8.370871">
        <ele>73.830996</ele>
        <time>2026-08-05T13:49:14.120Z</time>
      </trkpt>
      <trkpt lat="51.844016" lon="8.369080">
        <ele>73.864692</ele>
        <time>2026-08-05T13:49:45.092Z</time>
      </trkpt>
      <trkpt lat="51.844016" lon="8.367683">
        <ele>73.815236</ele>
        <time>2026-08-05T13:50:07.510Z</time>
      </trkpt>
      <trkpt lat="51.844346" lon="8.367637">
        <ele>73.793230</ele>
        <time>2026-08-05T13:50:15.670Z</time>
      </trkpt>
      <trkpt lat="51.844342" lon="8.367552">
        <ele>73.787924</ele>
        <time>2026-08-05T13:50:17.397Z</time>
      </trkpt>
      <trkpt lat="51.844969" lon="8.367480">
        <ele>73.724587</ele>
        <time>2026-08-05T13:50:32.835Z</time>
      </trkpt>
      <trkpt lat="51.845805" lon="8.367555">
        <ele>73.640221</ele>
        <time>2026-08-05T13:50:55.448Z</time>
      </trkpt>
      <trkpt lat="51.846028" lon="8.367600">
        <ele>73.622073</ele>
        <time>2026-08-05T13:51:01.810Z</time>
      </trkpt>
      <trkpt lat="51.846531" lon="8.367821">
        <ele>73.734162</ele>
        <time>2026-08-05T13:51:16.700Z</time>
      </trkpt>
      <trkpt lat="51.847551" lon="8.368564">
        <ele>73.974709</ele>
        <time>2026-08-05T13:51:48.261Z</time>
      </trkpt>
      <trkpt lat="51.848593" lon="8.369432">
        <ele>73.808501</ele>
        <time>2026-08-05T13:52:18.540Z</time>
      </trkpt>
      <trkpt lat="51.849223" lon="8.369964">
        <ele>73.671998</ele>
        <time>2026-08-05T13:52:36.569Z</time>
      </trkpt>
      <trkpt lat="51.849399" lon="8.370175">
        <ele>73.638146</ele>
        <time>2026-08-05T13:52:42.073Z</time>
      </trkpt>
      <trkpt lat="51.849653" lon="8.370528">
        <ele>73.591242</ele>
        <time>2026-08-05T13:52:50.883Z</time>
      </trkpt>
      <trkpt lat="51.849877" lon="8.370782">
        <ele>73.552924</ele>
        <time>2026-08-05T13:52:57.859Z</time>
      </trkpt>
      <trkpt lat="51.850095" lon="8.370882">
        <ele>73.521177</ele>
        <time>2026-08-05T13:53:03.739Z</time>
      </trkpt>
      <trkpt lat="51.850367" lon="8.370850">
        <ele>73.482967</ele>
        <time>2026-08-05T13:53:10.982Z</time>
      </trkpt>
      <trkpt lat="51.850468" lon="8.370786">
        <ele>73.467770</ele>
        <time>2026-08-05T13:53:13.888Z</time>
      </trkpt>
      <trkpt lat="51.850516" lon="8.370707">
        <ele>73.458179</ele>
        <time>2026-08-05T13:53:15.697Z</time>
      </trkpt>
      <trkpt lat="51.850599" lon="8.370689">
        <ele>73.446446</ele>
        <time>2026-08-05T13:53:17.945Z</time>
      </trkpt>
      <trkpt lat="51.850668" lon="8.370666">
        <ele>73.436576</ele>
        <time>2026-08-05T13:53:19.832Z</time>
      </trkpt>
      <trkpt lat="51.850721" lon="8.370774">
        <ele>73.424638</ele>
        <time>2026-08-05T13:53:22.131Z</time>
      </trkpt>
      <trkpt lat="51.850732" lon="8.370873">
        <ele>73.415932</ele>
        <time>2026-08-05T13:53:23.786Z</time>
      </trkpt>
      <trkpt lat="51.850742" lon="8.370991">
        <ele>73.410530</ele>
        <time>2026-08-05T13:53:25.765Z</time>
      </trkpt>
      <trkpt lat="51.850753" lon="8.371124">
        <ele>73.420293</ele>
        <time>2026-08-05T13:53:27.986Z</time>
      </trkpt>
      <trkpt lat="51.850970" lon="8.371034">
        <ele>73.446676</ele>
        <time>2026-08-05T13:53:34.090Z</time>
      </trkpt>
      <trkpt lat="51.851080" lon="8.370914">
        <ele>73.462299</ele>
        <time>2026-08-05T13:53:37.697Z</time>
      </trkpt>
      <trkpt lat="51.851715" lon="8.370680">
        <ele>73.539001</ele>
        <time>2026-08-05T13:53:55.620Z</time>
      </trkpt>
      <trkpt lat="51.851859" lon="8.370676">
        <ele>73.555964</ele>
        <time>2026-08-05T13:53:59.569Z</time>
      </trkpt>
      <trkpt lat="51.853318" lon="8.369896">
        <ele>73.662953</ele>
        <time>2026-08-05T13:54:41.183Z</time>
      </trkpt>
      <trkpt lat="51.853292" lon="8.369752">
        <ele>73.666954</ele>
        <time>2026-08-05T13:54:43.722Z</time>
      </trkpt>
      <trkpt lat="51.853275" lon="8.369518">
        <ele>73.673238</ele>
        <time>2026-08-05T13:54:47.666Z</time>
      </trkpt>
      <trkpt lat="51.853307" lon="8.369315">
        <ele>73.678826</ele>
        <time>2026-08-05T13:54:51.128Z</time>
      </trkpt>
      <trkpt lat="51.853370" lon="8.369130">
        <ele>73.684461</ele>
        <time>2026-08-05T13:54:54.619Z</time>
      </trkpt>
      <trkpt lat="51.853489" lon="8.368964">
        <ele>73.691244</ele>
        <time>2026-08-05T13:54:58.804Z</time>
      </trkpt>
      <trkpt lat="51.853783" lon="8.368717">
        <ele>73.693185</ele>
        <time>2026-08-05T13:55:07.630Z</time>
      </trkpt>
      <trkpt lat="51.854180" lon="8.368383">
        <ele>73.681682</ele>
        <time>2026-08-05T13:55:19.489Z</time>
      </trkpt>
      <trkpt lat="51.855071" lon="8.367615">
        <ele>73.655730</ele>
        <time>2026-08-05T13:55:46.019Z</time>
      </trkpt>
      <trkpt lat="51.855187" lon="8.367557">
        <ele>73.652609</ele>
        <time>2026-08-05T13:55:49.255Z</time>
      </trkpt>
      <trkpt lat="51.855358" lon="8.367471">
        <ele>73.671334</ele>
        <time>2026-08-05T13:55:54.100Z</time>
      </trkpt>
      <trkpt lat="51.855502" lon="8.367451">
        <ele>73.692040</ele>
        <time>2026-08-05T13:55:58.024Z</time>
      </trkpt>
      <trkpt lat="51.855559" lon="8.367240">
        <ele>73.712417</ele>
        <time>2026-08-05T13:56:01.907Z</time>
      </trkpt>
      <trkpt lat="51.855687" lon="8.367018">
        <ele>73.739290</ele>
        <time>2026-08-05T13:56:07.117Z</time>
      </trkpt>
      <trkpt lat="51.856234" lon="8.366235">
        <ele>73.843888</ele>
        <time>2026-08-05T13:56:27.757Z</time>
      </trkpt>
      <trkpt lat="51.856463" lon="8.365658">
        <ele>73.904574</ele>
        <time>2026-08-05T13:56:39.445Z</time>
      </trkpt>
      <trkpt lat="51.856603" lon="8.365304">
        <ele>73.845481</ele>
        <time>2026-08-05T13:56:46.443Z</time>
      </trkpt>
      <trkpt lat="51.856645" lon="8.365200">
        <ele>73.823942</ele>
        <time>2026-08-05T13:56:48.501Z</time>
      </trkpt>
      <trkpt lat="51.857710" lon="8.362456">
        <ele>73.261950</ele>
        <time>2026-08-05T13:57:38.426Z</time>
      </trkpt>
      <trkpt lat="51.857753" lon="8.362286">
        <ele>73.230054</ele>
        <time>2026-08-05T13:57:41.254Z</time>
      </trkpt>
      <trkpt lat="51.857841" lon="8.362286">
        <ele>73.205316</ele>
        <time>2026-08-05T13:57:43.474Z</time>
      </trkpt>
      <trkpt lat="51.858297" lon="8.362423">
        <ele>73.074937</ele>
        <time>2026-08-05T13:57:55.291Z</time>
      </trkpt>
      <trkpt lat="51.858536" lon="8.362441">
        <ele>73.007677</ele>
        <time>2026-08-05T13:58:01.417Z</time>
      </trkpt>
      <trkpt lat="51.858858" lon="8.362152">
        <ele>72.904180</ele>
        <time>2026-08-05T13:58:10.928Z</time>
      </trkpt>
      <trkpt lat="51.859011" lon="8.361953">
        <ele>72.913944</ele>
        <time>2026-08-05T13:58:16.043Z</time>
      </trkpt>
      <trkpt lat="51.860162" lon="8.360156">
        <ele>73.050642</ele>
        <time>2026-08-05T13:58:59.570Z</time>
      </trkpt>
      <trkpt lat="51.860352" lon="8.359859">
        <ele>73.130870</ele>
        <time>2026-08-05T13:59:06.921Z</time>
      </trkpt>
      <trkpt lat="51.860655" lon="8.359416">
        <ele>73.263240</ele>
        <time>2026-08-05T13:59:18.439Z</time>
      </trkpt>
      <trkpt lat="51.860868" lon="8.358985">
        <ele>73.373778</ele>
        <time>2026-08-05T13:59:28.196Z</time>
      </trkpt>
      <trkpt lat="51.861188" lon="8.357537">
        <ele>73.634004</ele>
        <time>2026-08-05T13:59:55.411Z</time>
      </trkpt>
      <trkpt lat="51.861353" lon="8.356984">
        <ele>73.629251</ele>
        <time>2026-08-05T14:00:05.848Z</time>
      </trkpt>
      <trkpt lat="51.861606" lon="8.356620">
        <ele>73.625009</ele>
        <time>2026-08-05T14:00:14.917Z</time>
      </trkpt>
      <trkpt lat="51.861776" lon="8.356493">
        <ele>73.622663</ele>
        <time>2026-08-05T14:00:19.882Z</time>
      </trkpt>
      <trkpt lat="51.862328" lon="8.356135">
        <ele>73.615211</ele>
        <time>2026-08-05T14:00:35.223Z</time>
      </trkpt>
      <trkpt lat="51.862565" lon="8.355991">
        <ele>73.601650</ele>
        <time>2026-08-05T14:00:41.635Z</time>
      </trkpt>
      <trkpt lat="51.863054" lon="8.355557">
        <ele>73.534193</ele>
        <time>2026-08-05T14:00:55.506Z</time>
      </trkpt>
      <trkpt lat="51.863945" lon="8.354308">
        <ele>73.409666</ele>
        <time>2026-08-05T14:01:26.407Z</time>
      </trkpt>
      <trkpt lat="51.864186" lon="8.353943">
        <ele>73.548622</ele>
        <time>2026-08-05T14:01:35.846Z</time>
      </trkpt>
      <trkpt lat="51.864389" lon="8.353643">
        <ele>73.664354</ele>
        <time>2026-08-05T14:01:43.962Z</time>
      </trkpt>
      <trkpt lat="51.865064" lon="8.352564">
        <ele>74.063760</ele>
        <time>2026-08-05T14:02:29.112Z</time>
      </trkpt>
      <trkpt lat="51.865130" lon="8.352423">
        <ele>74.109769</ele>
        <time>2026-08-05T14:02:34.259Z</time>
      </trkpt>
      <trkpt lat="51.865195" lon="8.352162">
        <ele>74.144647</ele>
        <time>2026-08-05T14:02:42.357Z</time>
      </trkpt>
      <trkpt lat="51.865293" lon="8.351990">
        <ele>74.127460</ele>
        <time>2026-08-05T14:02:48.989Z</time>
      </trkpt>
      <trkpt lat="51.865786" lon="8.351513">
        <ele>74.059162</ele>
        <time>2026-08-05T14:03:14.583Z</time>
      </trkpt>
      <trkpt lat="51.866032" lon="8.351074">
        <ele>74.015628</ele>
        <time>2026-08-05T14:03:30.312Z</time>
      </trkpt>
      <trkpt lat="51.866165" lon="8.350627">
        <ele>73.979190</ele>
        <time>2026-08-05T14:03:43.266Z</time>
      </trkpt>
      <trkpt lat="51.866209" lon="8.350245">
        <ele>73.950654</ele>
        <time>2026-08-05T14:03:53.431Z</time>
      </trkpt>
      <trkpt lat="51.866288" lon="8.349973">
        <ele>73.901177</ele>
        <time>2026-08-05T14:04:01.320Z</time>
      </trkpt>
      <trkpt lat="51.866755" lon="8.349088">
        <ele>73.594648</ele>
        <time>2026-08-05T14:04:31.955Z</time>
      </trkpt>
      <trkpt lat="51.867059" lon="8.348670">
        <ele>73.424594</ele>
        <time>2026-08-05T14:04:49.013Z</time>
      </trkpt>
      <trkpt lat="51.867233" lon="8.348508">
        <ele>73.339010</ele>
        <time>2026-08-05T14:04:57.572Z</time>
      </trkpt>
      <trkpt lat="51.867538" lon="8.348375">
        <ele>73.204319</ele>
        <time>2026-08-05T14:05:10.972Z</time>
      </trkpt>
      <trkpt lat="51.867946" lon="8.348286">
        <ele>73.144698</ele>
        <time>2026-08-05T14:05:28.537Z</time>
      </trkpt>
      <trkpt lat="51.868526" lon="8.348291">
        <ele>73.097272</ele>
        <time>2026-08-05T14:05:53.733Z</time>
      </trkpt>
      <trkpt lat="51.868574" lon="8.348292">
        <ele>73.093347</ele>
        <time>2026-08-05T14:05:55.857Z</time>
      </trkpt>
      <trkpt lat="51.869142" lon="8.348400">
        <ele>73.046585</ele>
        <time>2026-08-05T14:06:11.505Z</time>
      </trkpt>
      <trkpt lat="51.869298" lon="8.348387">
        <ele>73.033812</ele>
        <time>2026-08-05T14:06:15.810Z</time>
      </trkpt>
      <trkpt lat="51.869695" lon="8.348255">
        <ele>72.976313</ele>
        <time>2026-08-05T14:06:27.030Z</time>
      </trkpt>
      <trkpt lat="51.869724" lon="8.348518">
        <ele>72.949390</ele>
        <time>2026-08-05T14:06:31.560Z</time>
      </trkpt>
      <trkpt lat="51.869732" lon="8.348651">
        <ele>72.935924</ele>
        <time>2026-08-05T14:06:33.794Z</time>
      </trkpt>
      <trkpt lat="51.869750" lon="8.348818">
        <ele>72.918841</ele>
        <time>2026-08-05T14:06:36.616Z</time>
      </trkpt>
      <trkpt lat="51.869758" lon="8.348944">
        <ele>72.906076</ele>
        <time>2026-08-05T14:06:39.369Z</time>
      </trkpt>
      <trkpt lat="51.869750" lon="8.348818">
        <ele>72.893312</ele>
        <time>2026-08-05T14:06:42.095Z</time>
      </trkpt>
      <trkpt lat="51.869732" lon="8.348651">
        <ele>72.876229</ele>
        <time>2026-08-05T14:06:44.844Z</time>
      </trkpt>
      <trkpt lat="51.869724" lon="8.348518">
        <ele>72.862762</ele>
        <time>2026-08-05T14:06:46.992Z</time>
      </trkpt>
      <trkpt lat="51.869695" lon="8.348255">
        <ele>72.835840</ele>
        <time>2026-08-05T14:06:51.247Z</time>
      </trkpt>
      <trkpt lat="51.870379" lon="8.347625">
        <ele>72.667362</ele>
        <time>2026-08-05T14:07:10.609Z</time>
      </trkpt>
      <trkpt lat="51.870858" lon="8.347174">
        <ele>72.427041</ele>
        <time>2026-08-05T14:07:23.960Z</time>
      </trkpt>
      <trkpt lat="51.870921" lon="8.347016">
        <ele>72.376670</ele>
        <time>2026-08-05T14:07:26.760Z</time>
      </trkpt>
      <trkpt lat="51.871344" lon="8.345315">
        <ele>71.977679</ele>
        <time>2026-08-05T14:07:55.375Z</time>
      </trkpt>
      <trkpt lat="51.871360" lon="8.345243">
        <ele>71.985848</ele>
        <time>2026-08-05T14:07:57.483Z</time>
      </trkpt>
      <trkpt lat="51.871280" lon="8.345156">
        <ele>72.002508</ele>
        <time>2026-08-05T14:08:00.062Z</time>
      </trkpt>
      <trkpt lat="51.871155" lon="8.345044">
        <ele>72.027206</ele>
        <time>2026-08-05T14:08:03.966Z</time>
      </trkpt>
      <trkpt lat="51.871129" lon="8.345022">
        <ele>72.032277</ele>
        <time>2026-08-05T14:08:04.751Z</time>
      </trkpt>
      <trkpt lat="51.871501" lon="8.343915">
        <ele>72.166816</ele>
        <time>2026-08-05T14:08:26.552Z</time>
      </trkpt>
      <trkpt lat="51.871640" lon="8.342968">
        <ele>72.271390</ele>
        <time>2026-08-05T14:08:43.661Z</time>
      </trkpt>
      <trkpt lat="51.871726" lon="8.342572">
        <ele>72.319790</ele>
        <time>2026-08-05T14:08:50.876Z</time>
      </trkpt>
      <trkpt lat="51.871897" lon="8.342108">
        <ele>72.382094</ele>
        <time>2026-08-05T14:09:00.045Z</time>
      </trkpt>
      <trkpt lat="51.872299" lon="8.341255">
        <ele>72.505820</ele>
        <time>2026-08-05T14:09:18.112Z</time>
      </trkpt>
      <trkpt lat="51.872525" lon="8.340908">
        <ele>72.563973</ele>
        <time>2026-08-05T14:09:26.728Z</time>
      </trkpt>
      <trkpt lat="51.873194" lon="8.340029">
        <ele>72.546850</ele>
        <time>2026-08-05T14:09:50.372Z</time>
      </trkpt>
      <trkpt lat="51.873653" lon="8.339498">
        <ele>72.504049</ele>
        <time>2026-08-05T14:10:05.199Z</time>
      </trkpt>
      <trkpt lat="51.874270" lon="8.338883">
        <ele>72.442051</ele>
        <time>2026-08-05T14:10:23.333Z</time>
      </trkpt>
      <trkpt lat="51.874665" lon="8.338492">
        <ele>72.387526</ele>
        <time>2026-08-05T14:10:35.029Z</time>
      </trkpt>
      <trkpt lat="51.874879" lon="8.338373">
        <ele>72.360876</ele>
        <time>2026-08-05T14:10:40.848Z</time>
      </trkpt>
      <trkpt lat="51.875298" lon="8.338331">
        <ele>72.311430</ele>
        <time>2026-08-05T14:10:51.815Z</time>
      </trkpt>
      <trkpt lat="51.876454" lon="8.338434">
        <ele>72.234763</ele>
        <time>2026-08-05T14:11:24.057Z</time>
      </trkpt>
      <trkpt lat="51.876576" lon="8.338386">
        <ele>72.231766</ele>
        <time>2026-08-05T14:11:27.394Z</time>
      </trkpt>
      <trkpt lat="51.876727" lon="8.338211">
        <ele>72.227332</ele>
        <time>2026-08-05T14:11:32.371Z</time>
      </trkpt>
      <trkpt lat="51.877099" lon="8.337624">
        <ele>72.214932</ele>
        <time>2026-08-05T14:11:45.989Z</time>
      </trkpt>
      <trkpt lat="51.877275" lon="8.337432">
        <ele>72.209866</ele>
        <time>2026-08-05T14:11:51.500Z</time>
      </trkpt>
      <trkpt lat="51.876998" lon="8.336584">
        <ele>72.006155</ele>
        <time>2026-08-05T14:12:06.517Z</time>
      </trkpt>
      <trkpt lat="51.876584" lon="8.335701">
        <ele>71.714945</ele>
        <time>2026-08-05T14:12:23.158Z</time>
      </trkpt>
      <trkpt lat="51.875917" lon="8.334383">
        <ele>71.450371</ele>
        <time>2026-08-05T14:12:49.228Z</time>
      </trkpt>
      <trkpt lat="51.874649" lon="8.331874">
        <ele>71.621947</ele>
        <time>2026-08-05T14:13:44.569Z</time>
      </trkpt>
      <trkpt lat="51.873919" lon="8.330637">
        <ele>71.867569</ele>
        <time>2026-08-05T14:14:14.274Z</time>
      </trkpt>
      <trkpt lat="51.873810" lon="8.330428">
        <ele>71.893563</ele>
        <time>2026-08-05T14:14:18.929Z</time>
      </trkpt>
      <trkpt lat="51.873566" lon="8.329970">
        <ele>71.856418</ele>
        <time>2026-08-05T14:14:29.057Z</time>
      </trkpt>
      <trkpt lat="51.873028" lon="8.328984">
        <ele>71.775621</ele>
        <time>2026-08-05T14:14:50.227Z</time>
      </trkpt>
      <trkpt lat="51.874420" lon="8.327616">
        <ele>71.501096</ele>
        <time>2026-08-05T14:15:36.343Z</time>
      </trkpt>
      <trkpt lat="51.876793" lon="8.325306">
        <ele>71.180182</ele>
        <time>2026-08-05T14:16:57.720Z</time>
      </trkpt>
      <trkpt lat="51.876878" lon="8.325229">
        <ele>71.162638</ele>
        <time>2026-08-05T14:17:00.581Z</time>
      </trkpt>
      <trkpt lat="51.877167" lon="8.324972">
        <ele>71.103249</ele>
        <time>2026-08-05T14:17:10.176Z</time>
      </trkpt>
      <trkpt lat="51.879421" lon="8.322730">
        <ele>70.595092</ele>
        <time>2026-08-05T14:18:25.671Z</time>
      </trkpt>
      <trkpt lat="51.879501" lon="8.322654">
        <ele>70.576426</ele>
        <time>2026-08-05T14:18:28.379Z</time>
      </trkpt>
      <trkpt lat="51.878857" lon="8.322390">
        <ele>70.554060</ele>
        <time>2026-08-05T14:18:46.151Z</time>
      </trkpt>
      <trkpt lat="51.879398" lon="8.320519">
        <ele>70.606995</ele>
        <time>2026-08-05T14:19:43.383Z</time>
      </trkpt>
      <trkpt lat="51.879510" lon="8.320220">
        <ele>70.582222</ele>
        <time>2026-08-05T14:19:52.892Z</time>
      </trkpt>
      <trkpt lat="51.879547" lon="8.320032">
        <ele>70.560117</ele>
        <time>2026-08-05T14:19:58.272Z</time>
      </trkpt>
      <trkpt lat="51.879671" lon="8.319748">
        <ele>70.521147</ele>
        <time>2026-08-05T14:20:07.591Z</time>
      </trkpt>
      <trkpt lat="51.879710" lon="8.319670">
        <ele>70.509902</ele>
        <time>2026-08-05T14:20:10.329Z</time>
      </trkpt>
      <trkpt lat="51.880154" lon="8.318041">
        <ele>70.310414</ele>
        <time>2026-08-05T14:20:57.415Z</time>
      </trkpt>
      <trkpt lat="51.880619" lon="8.316323">
        <ele>70.517640</ele>
        <time>2026-08-05T14:21:49.447Z</time>
      </trkpt>
      <trkpt lat="51.879600" lon="8.315881">
        <ele>70.758623</ele>
        <time>2026-08-05T14:22:20.549Z</time>
      </trkpt>
      <trkpt lat="51.880659" lon="8.312372">
        <ele>71.119187</ele>
        <time>2026-08-05T14:23:26.416Z</time>
      </trkpt>
      <trkpt lat="51.880994" lon="8.311230">
        <ele>71.144408</ele>
        <time>2026-08-05T14:23:47.078Z</time>
      </trkpt>
      <trkpt lat="51.881005" lon="8.310993">
        <ele>71.146043</ele>
        <time>2026-08-05T14:23:50.949Z</time>
      </trkpt>
      <trkpt lat="51.880987" lon="8.310859">
        <ele>71.102954</ele>
        <time>2026-08-05T14:23:53.169Z</time>
      </trkpt>
      <trkpt lat="51.880697" lon="8.309827">
        <ele>70.746680</ele>
        <time>2026-08-05T14:24:11.251Z</time>
      </trkpt>
      <trkpt lat="51.880619" lon="8.309635">
        <ele>70.674461</ele>
        <time>2026-08-05T14:24:14.836Z</time>
      </trkpt>
      <trkpt lat="51.880175" lon="8.308907">
        <ele>70.352907</ele>
        <time>2026-08-05T14:24:30.235Z</time>
      </trkpt>
      <trkpt lat="51.879615" lon="8.308146">
        <ele>69.662006</ele>
        <time>2026-08-05T14:24:46.684Z</time>
      </trkpt>
      <trkpt lat="51.879555" lon="8.308047">
        <ele>69.563388</ele>
        <time>2026-08-05T14:24:48.576Z</time>
      </trkpt>
      <trkpt lat="51.879178" lon="8.306942">
        <ele>68.665942</ele>
        <time>2026-08-05T14:25:05.880Z</time>
      </trkpt>
      <trkpt lat="51.878014" lon="8.304300">
        <ele>67.053302</ele>
        <time>2026-08-05T14:25:53.347Z</time>
      </trkpt>
      <trkpt lat="51.877914" lon="8.304002">
        <ele>66.905049</ele>
        <time>2026-08-05T14:25:58.748Z</time>
      </trkpt>
      <trkpt lat="51.877859" lon="8.303704">
        <ele>66.924147</ele>
        <time>2026-08-05T14:26:03.710Z</time>
      </trkpt>
      <trkpt lat="51.877842" lon="8.303427">
        <ele>66.959975</ele>
        <time>2026-08-05T14:26:08.202Z</time>
      </trkpt>
      <trkpt lat="51.877874" lon="8.303178">
        <ele>66.992710</ele>
        <time>2026-08-05T14:26:12.387Z</time>
      </trkpt>
      <trkpt lat="51.877889" lon="8.302863">
        <ele>67.033373</ele>
        <time>2026-08-05T14:26:17.658Z</time>
      </trkpt>
      <trkpt lat="51.877890" lon="8.302814">
        <ele>67.039683</ele>
        <time>2026-08-05T14:26:18.491Z</time>
      </trkpt>
      <trkpt lat="51.877817" lon="8.301844">
        <ele>67.165453</ele>
        <time>2026-08-05T14:26:35.812Z</time>
      </trkpt>
      <trkpt lat="51.877668" lon="8.300963">
        <ele>67.332500</ele>
        <time>2026-08-05T14:26:52.254Z</time>
      </trkpt>
      <trkpt lat="51.877439" lon="8.300099">
        <ele>67.766157</ele>
        <time>2026-08-05T14:27:09.304Z</time>
      </trkpt>
      <trkpt lat="51.877290" lon="8.299608">
        <ele>68.018491</ele>
        <time>2026-08-05T14:27:19.546Z</time>
      </trkpt>
      <trkpt lat="51.876840" lon="8.298454">
        <ele>68.633296</ele>
        <time>2026-08-05T14:27:45.824Z</time>
      </trkpt>
      <trkpt lat="51.876762" lon="8.298269">
        <ele>68.698983</ele>
        <time>2026-08-05T14:27:50.071Z</time>
      </trkpt>
      <trkpt lat="51.876490" lon="8.297282">
        <ele>69.015904</ele>
        <time>2026-08-05T14:28:10.396Z</time>
      </trkpt>
      <trkpt lat="51.876462" lon="8.297104">
        <ele>69.069763</ele>
        <time>2026-08-05T14:28:13.785Z</time>
      </trkpt>
      <trkpt lat="51.876431" lon="8.296424">
        <ele>69.269688</ele>
        <time>2026-08-05T14:28:26.046Z</time>
      </trkpt>
      <trkpt lat="51.878119" lon="8.295425">
        <ele>69.266747</ele>
        <time>2026-08-05T14:29:12.053Z</time>
      </trkpt>
      <trkpt lat="51.878281" lon="8.295391">
        <ele>69.243859</ele>
        <time>2026-08-05T14:29:16.226Z</time>
      </trkpt>
      <trkpt lat="51.879408" lon="8.295794">
        <ele>69.458376</ele>
        <time>2026-08-05T14:29:48.130Z</time>
      </trkpt>
      <trkpt lat="51.879448" lon="8.295808">
        <ele>69.469536</ele>
        <time>2026-08-05T14:29:49.325Z</time>
      </trkpt>
      <trkpt lat="51.880240" lon="8.296073">
        <ele>69.690077</ele>
        <time>2026-08-05T14:30:12.541Z</time>
      </trkpt>
      <trkpt lat="51.880693" lon="8.296229">
        <ele>69.693625</ele>
        <time>2026-08-05T14:30:25.917Z</time>
      </trkpt>
      <trkpt lat="51.881440" lon="8.296493">
        <ele>69.681555</ele>
        <time>2026-08-05T14:30:46.260Z</time>
      </trkpt>
      <trkpt lat="51.882557" lon="8.296884">
        <ele>69.438392</ele>
        <time>2026-08-05T14:31:14.992Z</time>
      </trkpt>
      <trkpt lat="51.884023" lon="8.297393">
        <ele>68.853203</ele>
        <time>2026-08-05T14:31:51.878Z</time>
      </trkpt>
      <trkpt lat="51.884076" lon="8.297410">
        <ele>68.845760</ele>
        <time>2026-08-05T14:31:53.258Z</time>
      </trkpt>
      <trkpt lat="51.884111" lon="8.297422">
        <ele>68.840832</ele>
        <time>2026-08-05T14:31:54.181Z</time>
      </trkpt>
      <trkpt lat="51.884076" lon="8.297410">
        <ele>68.835903</ele>
        <time>2026-08-05T14:31:55.097Z</time>
      </trkpt>
      <trkpt lat="51.884274" lon="8.294936">
        <ele>68.651088</ele>
        <time>2026-08-05T14:32:35.831Z</time>
      </trkpt>
      <trkpt lat="51.884390" lon="8.293493">
        <ele>68.768724</ele>
        <time>2026-08-05T14:33:00.289Z</time>
      </trkpt>
      <trkpt lat="51.884424" lon="8.293318">
        <ele>68.783555</ele>
        <time>2026-08-05T14:33:03.395Z</time>
      </trkpt>
      <trkpt lat="51.884499" lon="8.293136">
        <ele>68.801245</ele>
        <time>2026-08-05T14:33:07.120Z</time>
      </trkpt>
      <trkpt lat="51.886209" lon="8.291574">
        <ele>69.010217</ele>
        <time>2026-08-05T14:34:01.303Z</time>
      </trkpt>
      <trkpt lat="51.886663" lon="8.291145">
        <ele>69.023722</ele>
        <time>2026-08-05T14:34:15.049Z</time>
      </trkpt>
      <trkpt lat="51.887695" lon="8.290255">
        <ele>68.823443</ele>
        <time>2026-08-05T14:34:45.240Z</time>
      </trkpt>
      <trkpt lat="51.888212" lon="8.289857">
        <ele>68.735061</ele>
        <time>2026-08-05T14:34:59.977Z</time>
      </trkpt>
      <trkpt lat="51.888248" lon="8.289788">
        <ele>68.732058</ele>
        <time>2026-08-05T14:35:01.417Z</time>
      </trkpt>
      <trkpt lat="51.888266" lon="8.289647">
        <ele>68.727273</ele>
        <time>2026-08-05T14:35:03.705Z</time>
      </trkpt>
      <trkpt lat="51.888049" lon="8.287850">
        <ele>68.666420</ele>
        <time>2026-08-05T14:35:33.258Z</time>
      </trkpt>
      <trkpt lat="51.887525" lon="8.283615">
        <ele>68.826534</ele>
        <time>2026-08-05T14:36:45.419Z</time>
      </trkpt>
      <trkpt lat="51.887533" lon="8.283461">
        <ele>68.839828</ele>
        <time>2026-08-05T14:36:48.025Z</time>
      </trkpt>
      <trkpt lat="51.887933" lon="8.281904">
        <ele>68.984904</ele>
        <time>2026-08-05T14:37:16.268Z</time>
      </trkpt>
      <trkpt lat="51.888135" lon="8.281414">
        <ele>69.048353</ele>
        <time>2026-08-05T14:37:26.574Z</time>
      </trkpt>
      <trkpt lat="51.888475" lon="8.281277">
        <ele>69.132376</ele>
        <time>2026-08-05T14:37:36.641Z</time>
      </trkpt>
      <trkpt lat="51.888449" lon="8.281155">
        <ele>69.151480</ele>
        <time>2026-08-05T14:37:39.622Z</time>
      </trkpt>
      <trkpt lat="51.888201" lon="8.280199">
        <ele>69.304974</ele>
        <time>2026-08-05T14:37:57.631Z</time>
      </trkpt>
      <trkpt lat="51.888055" lon="8.279631">
        <ele>69.396047</ele>
        <time>2026-08-05T14:38:08.100Z</time>
      </trkpt>
      <trkpt lat="51.887937" lon="8.279165">
        <ele>69.423149</ele>
        <time>2026-08-05T14:38:16.732Z</time>
      </trkpt>
      <trkpt lat="51.887779" lon="8.278491">
        <ele>69.292862</ele>
        <time>2026-08-05T14:38:28.340Z</time>
      </trkpt>
      <trkpt lat="51.887775" lon="8.278082">
        <ele>69.218943</ele>
        <time>2026-08-05T14:38:34.650Z</time>
      </trkpt>
      <trkpt lat="51.887792" lon="8.277652">
        <ele>69.141079</ele>
        <time>2026-08-05T14:38:41.192Z</time>
      </trkpt>
      <trkpt lat="51.888171" lon="8.276279">
        <ele>68.905853</ele>
        <time>2026-08-05T14:39:04.117Z</time>
      </trkpt>
      <trkpt lat="51.888482" lon="8.275208">
        <ele>68.838619</ele>
        <time>2026-08-05T14:39:23.171Z</time>
      </trkpt>
      <trkpt lat="51.888511" lon="8.275114">
        <ele>68.832650</ele>
        <time>2026-08-05T14:39:24.938Z</time>
      </trkpt>
      <trkpt lat="51.888779" lon="8.274177">
        <ele>68.773988</ele>
        <time>2026-08-05T14:39:42.134Z</time>
      </trkpt>
      <trkpt lat="51.887866" lon="8.273064">
        <ele>68.849001</ele>
        <time>2026-08-05T14:40:13.439Z</time>
      </trkpt>
      <trkpt lat="51.887156" lon="8.272208">
        <ele>68.938837</ele>
        <time>2026-08-05T14:40:37.042Z</time>
      </trkpt>
      <trkpt lat="51.887014" lon="8.271993">
        <ele>68.978940</ele>
        <time>2026-08-05T14:40:42.304Z</time>
      </trkpt>
      <trkpt lat="51.886849" lon="8.271685">
        <ele>69.030879</ele>
        <time>2026-08-05T14:40:49.168Z</time>
      </trkpt>
      <trkpt lat="51.886616" lon="8.271019">
        <ele>69.128375</ele>
        <time>2026-08-05T14:41:02.163Z</time>
      </trkpt>
      <trkpt lat="51.886028" lon="8.268488">
        <ele>69.658079</ele>
        <time>2026-08-05T14:41:49.613Z</time>
      </trkpt>
      <trkpt lat="51.885883" lon="8.267484">
        <ele>69.930738</ele>
        <time>2026-08-05T14:42:08.093Z</time>
      </trkpt>
      <trkpt lat="51.885870" lon="8.267169">
        <ele>70.014219</ele>
        <time>2026-08-05T14:42:13.685Z</time>
      </trkpt>
      <trkpt lat="51.885889" lon="8.266678">
        <ele>70.131961</ele>
        <time>2026-08-05T14:42:22.423Z</time>
      </trkpt>
      <trkpt lat="51.885977" lon="8.265805">
        <ele>70.326362</ele>
        <time>2026-08-05T14:42:38.053Z</time>
      </trkpt>
      <trkpt lat="51.886080" lon="8.265253">
        <ele>70.453096</ele>
        <time>2026-08-05T14:42:48.161Z</time>
      </trkpt>
      <trkpt lat="51.886178" lon="8.264899">
        <ele>70.538361</ele>
        <time>2026-08-05T14:42:54.874Z</time>
      </trkpt>
      <trkpt lat="51.886938" lon="8.262545">
        <ele>70.769082</ele>
        <time>2026-08-05T14:43:40.425Z</time>
      </trkpt>
      <trkpt lat="51.887892" lon="8.259609">
        <ele>70.548552</ele>
        <time>2026-08-05T14:44:32.670Z</time>
      </trkpt>
      <trkpt lat="51.887997" lon="8.259108">
        <ele>70.489708</ele>
        <time>2026-08-05T14:44:41.406Z</time>
      </trkpt>
      <trkpt lat="51.888041" lon="8.259131">
        <ele>70.481377</ele>
        <time>2026-08-05T14:44:43.532Z</time>
      </trkpt>
      <trkpt lat="51.888171" lon="8.259283">
        <ele>70.515071</ele>
        <time>2026-08-05T14:44:47.814Z</time>
      </trkpt>
      <trkpt lat="51.888354" lon="8.259701">
        <ele>70.602743</ele>
        <time>2026-08-05T14:44:56.513Z</time>
      </trkpt>
      <trkpt lat="51.888550" lon="8.259954">
        <ele>70.672203</ele>
        <time>2026-08-05T14:45:03.812Z</time>
      </trkpt>
      <trkpt lat="51.889127" lon="8.260347">
        <ele>70.845692</ele>
        <time>2026-08-05T14:45:21.947Z</time>
      </trkpt>
      <trkpt lat="51.889155" lon="8.260139">
        <ele>70.882111</ele>
        <time>2026-08-05T14:45:26.677Z</time>
      </trkpt>
      <trkpt lat="51.889191" lon="8.259877">
        <ele>70.928029</ele>
        <time>2026-08-05T14:45:32.615Z</time>
      </trkpt>
      <trkpt lat="51.889237" lon="8.259655">
        <ele>70.968090</ele>
        <time>2026-08-05T14:45:37.021Z</time>
      </trkpt>
      <trkpt lat="51.889334" lon="8.259187">
        <ele>71.025486</ele>
        <time>2026-08-05T14:45:46.344Z</time>
      </trkpt>
      <trkpt lat="51.889547" lon="8.258566">
        <ele>71.104233</ele>
        <time>2026-08-05T14:46:00.018Z</time>
      </trkpt>
      <trkpt lat="51.889576" lon="8.258325">
        <ele>71.131448</ele>
        <time>2026-08-05T14:46:04.720Z</time>
      </trkpt>
      <trkpt lat="51.889617" lon="8.256930">
        <ele>71.286244</ele>
        <time>2026-08-05T14:46:30.628Z</time>
      </trkpt>
      <trkpt lat="51.889598" lon="8.256654">
        <ele>71.312101</ele>
        <time>2026-08-05T14:46:35.664Z</time>
      </trkpt>
      <trkpt lat="51.889358" lon="8.255342">
        <ele>71.422998</ele>
        <time>2026-08-05T14:47:01.426Z</time>
      </trkpt>
      <trkpt lat="51.889506" lon="8.255414">
        <ele>71.443288</ele>
        <time>2026-08-05T14:47:08.473Z</time>
      </trkpt>
      <trkpt lat="51.889573" lon="8.255399">
        <ele>71.452169</ele>
        <time>2026-08-05T14:47:11.519Z</time>
      </trkpt>
      <trkpt lat="51.889506" lon="8.255414">
        <ele>71.461050</ele>
        <time>2026-08-05T14:47:14.657Z</time>
      </trkpt>
      <trkpt lat="51.889358" lon="8.255342">
        <ele>71.481341</ele>
        <time>2026-08-05T14:47:21.691Z</time>
      </trkpt>
      <trkpt lat="51.889326" lon="8.255131">
        <ele>71.498949</ele>
        <time>2026-08-05T14:47:27.736Z</time>
      </trkpt>
      <trkpt lat="51.889312" lon="8.253626">
        <ele>71.670927</ele>
        <time>2026-08-05T14:48:09.472Z</time>
      </trkpt>
      <trkpt lat="51.889305" lon="8.252549">
        <ele>71.808932</ele>
        <time>2026-08-05T14:48:39.515Z</time>
      </trkpt>
      <trkpt lat="51.889302" lon="8.252146">
        <ele>71.860573</ele>
        <time>2026-08-05T14:48:50.993Z</time>
      </trkpt>
      <trkpt lat="51.889299" lon="8.251374">
        <ele>72.005065</ele>
        <time>2026-08-05T14:49:13.066Z</time>
      </trkpt>
      <trkpt lat="51.889276" lon="8.251124">
        <ele>72.066281</ele>
        <time>2026-08-05T14:49:20.307Z</time>
      </trkpt>
      <trkpt lat="51.889203" lon="8.250972">
        <ele>72.112925</ele>
        <time>2026-08-05T14:49:25.827Z</time>
      </trkpt>
      <trkpt lat="51.889136" lon="8.250899">
        <ele>72.144608</ele>
        <time>2026-08-05T14:49:29.582Z</time>
      </trkpt>
      <trkpt lat="51.888813" lon="8.250811">
        <ele>72.273134</ele>
        <time>2026-08-05T14:49:44.779Z</time>
      </trkpt>
      <trkpt lat="51.888675" lon="8.250837">
        <ele>72.327650</ele>
        <time>2026-08-05T14:49:51.271Z</time>
      </trkpt>
      <trkpt lat="51.888011" lon="8.251158">
        <ele>72.599558</ele>
        <time>2026-08-05T14:50:23.650Z</time>
      </trkpt>
      <trkpt lat="51.887982" lon="8.251172">
        <ele>72.611432</ele>
        <time>2026-08-05T14:50:25.028Z</time>
      </trkpt>
      <trkpt lat="51.887788" lon="8.251228">
        <ele>72.642144</ele>
        <time>2026-08-05T14:50:34.089Z</time>
      </trkpt>
      <trkpt lat="51.887350" lon="8.251344">
        <ele>72.707578</ele>
        <time>2026-08-05T14:50:54.125Z</time>
      </trkpt>
      <trkpt lat="51.887299" lon="8.251361">
        <ele>72.715255</ele>
        <time>2026-08-05T14:50:55.578Z</time>
      </trkpt>
      <trkpt lat="51.887257" lon="8.250275">
        <ele>72.814274</ele>
        <time>2026-08-05T14:51:13.951Z</time>
      </trkpt>
      <trkpt lat="51.887252" lon="8.250106">
        <ele>72.829670</ele>
        <time>2026-08-05T14:51:17.742Z</time>
      </trkpt>
      <trkpt lat="51.887178" lon="8.249596">
        <ele>72.877345</ele>
        <time>2026-08-05T14:51:29.258Z</time>
      </trkpt>
      <trkpt lat="51.887104" lon="8.249124">
        <ele>72.833635</ele>
        <time>2026-08-05T14:51:39.699Z</time>
      </trkpt>
      <trkpt lat="51.886980" lon="8.248736">
        <ele>72.790823</ele>
        <time>2026-08-05T14:51:48.920Z</time>
      </trkpt>
      <trkpt lat="51.887040" lon="8.248656">
        <ele>72.778487</ele>
        <time>2026-08-05T14:51:51.579Z</time>
      </trkpt>
      <trkpt lat="51.887127" lon="8.248546">
        <ele>72.760967</ele>
        <time>2026-08-05T14:51:55.354Z</time>
      </trkpt>
      <trkpt lat="51.887180" lon="8.248539">
        <ele>72.752526</ele>
        <time>2026-08-05T14:51:57.195Z</time>
      </trkpt>
      <trkpt lat="51.887908" lon="8.248459">
        <ele>72.636688</ele>
        <time>2026-08-05T14:52:16.300Z</time>
      </trkpt>
      <trkpt lat="51.888115" lon="8.248406">
        <ele>72.603419</ele>
        <time>2026-08-05T14:52:21.662Z</time>
      </trkpt>
      <trkpt lat="51.888069" lon="8.247920">
        <ele>72.549255</ele>
        <time>2026-08-05T14:52:29.177Z</time>
      </trkpt>
      <trkpt lat="51.888062" lon="8.247853">
        <ele>72.541561</ele>
        <time>2026-08-05T14:52:30.217Z</time>
      </trkpt>
      <trkpt lat="51.888046" lon="8.246769">
        <ele>72.418790</ele>
        <time>2026-08-05T14:52:46.988Z</time>
      </trkpt>
      <trkpt lat="51.888015" lon="8.246607">
        <ele>72.399587</ele>
        <time>2026-08-05T14:52:49.663Z</time>
      </trkpt>
      <trkpt lat="51.887718" lon="8.245755">
        <ele>72.288796</ele>
        <time>2026-08-05T14:53:05.524Z</time>
      </trkpt>
      <trkpt lat="51.887642" lon="8.245537">
        <ele>72.266222</ele>
        <time>2026-08-05T14:53:09.759Z</time>
      </trkpt>
      <trkpt lat="51.887565" lon="8.245304">
        <ele>72.288200</ele>
        <time>2026-08-05T14:53:14.331Z</time>
      </trkpt>
      <trkpt lat="51.887490" lon="8.245080">
        <ele>72.309392</ele>
        <time>2026-08-05T14:53:18.734Z</time>
      </trkpt>
      <trkpt lat="51.887464" lon="8.245012">
        <ele>72.316044</ele>
        <time>2026-08-05T14:53:22.180Z</time>
      </trkpt>
      <trkpt lat="51.887455" lon="8.244988">
        <ele>72.318379</ele>
        <time>2026-08-05T14:53:23.403Z</time>
      </trkpt>
      <trkpt lat="51.887433" lon="8.244927">
        <ele>72.324255</ele>
        <time>2026-08-05T14:53:24.638Z</time>
      </trkpt>
      <trkpt lat="51.887404" lon="8.244847">
        <ele>72.331970</ele>
        <time>2026-08-05T14:53:26.273Z</time>
      </trkpt>
      <trkpt lat="51.887508" lon="8.244368">
        <ele>72.374195</ele>
        <time>2026-08-05T14:53:35.121Z</time>
      </trkpt>
      <trkpt lat="51.887565" lon="8.244020">
        <ele>72.404136</ele>
        <time>2026-08-05T14:53:41.356Z</time>
      </trkpt>
      <trkpt lat="51.887397" lon="8.243680">
        <ele>72.440354</ele>
        <time>2026-08-05T14:53:48.973Z</time>
      </trkpt>
      <trkpt lat="51.887231" lon="8.243526">
        <ele>72.466127</ele>
        <time>2026-08-05T14:53:55.686Z</time>
      </trkpt>
      <trkpt lat="51.887064" lon="8.243372">
        <ele>72.492016</ele>
        <time>2026-08-05T14:54:02.485Z</time>
      </trkpt>
      <trkpt lat="51.886863" lon="8.243422">
        <ele>72.598663</ele>
        <time>2026-08-05T14:54:09.788Z</time>
      </trkpt>
      <trkpt lat="51.886804" lon="8.243390">
        <ele>72.656988</ele>
        <time>2026-08-05T14:54:12.027Z</time>
      </trkpt>
      <trkpt lat="51.886740" lon="8.243346">
        <ele>72.722161</ele>
        <time>2026-08-05T14:54:14.550Z</time>
      </trkpt>
      <trkpt lat="51.886196" lon="8.243756">
        <ele>73.284599</ele>
        <time>2026-08-05T14:54:37.199Z</time>
      </trkpt>
      <trkpt lat="51.886063" lon="8.243660">
        <ele>73.421090</ele>
        <time>2026-08-05T14:54:41.942Z</time>
      </trkpt>
      <trkpt lat="51.885968" lon="8.243740">
        <ele>73.521457</ele>
        <time>2026-08-05T14:54:47.334Z</time>
      </trkpt>
      <trkpt lat="51.885907" lon="8.243702">
        <ele>73.582722</ele>
        <time>2026-08-05T14:54:50.634Z</time>
      </trkpt>
      <trkpt lat="51.885898" lon="8.243760">
        <ele>73.617325</ele>
        <time>2026-08-05T14:54:51.972Z</time>
      </trkpt>
      <trkpt lat="51.885860" lon="8.243912">
        <ele>73.712214</ele>
        <time>2026-08-05T14:54:57.164Z</time>
      </trkpt>
      <trkpt lat="51.885847" lon="8.243969">
        <ele>73.747374</ele>
        <time>2026-08-05T14:54:58.524Z</time>
      </trkpt>
      <trkpt lat="51.885680" lon="8.244681">
        <ele>74.188086</ele>
        <time>2026-08-05T14:55:16.128Z</time>
      </trkpt>
      <trkpt lat="51.885688" lon="8.244833">
        <ele>74.285010</ele>
        <time>2026-08-05T14:55:19.587Z</time>
      </trkpt>
      <trkpt lat="51.885739" lon="8.245028">
        <ele>74.420155</ele>
        <time>2026-08-05T14:55:24.465Z</time>
      </trkpt>
      <trkpt lat="51.885437" lon="8.245131">
        <ele>74.739222</ele>
        <time>2026-08-05T14:55:36.159Z</time>
      </trkpt>
      <trkpt lat="51.885417" lon="8.245354">
        <ele>74.883020</ele>
        <time>2026-08-05T14:55:41.433Z</time>
      </trkpt>
      <trkpt lat="51.885236" lon="8.245617">
        <ele>75.134383</ele>
        <time>2026-08-05T14:55:50.270Z</time>
      </trkpt>
      <trkpt lat="51.885130" lon="8.245785">
        <ele>75.287690</ele>
        <time>2026-08-05T14:55:55.399Z</time>
      </trkpt>
      <trkpt lat="51.885221" lon="8.245969">
        <ele>75.438149</ele>
        <time>2026-08-05T14:55:59.805Z</time>
      </trkpt>
      <trkpt lat="51.885130" lon="8.245785">
        <ele>75.588608</ele>
        <time>2026-08-05T14:56:04.104Z</time>
      </trkpt>
      <trkpt lat="51.884881" lon="8.245389">
        <ele>75.949342</ele>
        <time>2026-08-05T14:56:14.139Z</time>
      </trkpt>
      <trkpt lat="51.884771" lon="8.245337">
        <ele>76.042078</ele>
        <time>2026-08-05T14:56:17.321Z</time>
      </trkpt>
      <trkpt lat="51.884632" lon="8.245288">
        <ele>75.953547</ele>
        <time>2026-08-05T14:56:21.412Z</time>
      </trkpt>
      <trkpt lat="51.884588" lon="8.245272">
        <ele>75.925482</ele>
        <time>2026-08-05T14:56:22.695Z</time>
      </trkpt>
      <trkpt lat="51.884594" lon="8.244719">
        <ele>75.713016</ele>
        <time>2026-08-05T14:56:32.056Z</time>
      </trkpt>
      <trkpt lat="51.884581" lon="8.244640">
        <ele>75.681609</ele>
        <time>2026-08-05T14:56:33.429Z</time>
      </trkpt>
      <trkpt lat="51.884496" lon="8.244521">
        <ele>75.611693</ele>
        <time>2026-08-05T14:56:36.333Z</time>
      </trkpt>
      <trkpt lat="51.884381" lon="8.244443">
        <ele>75.534104</ele>
        <time>2026-08-05T14:56:39.469Z</time>
      </trkpt>
      <trkpt lat="51.884267" lon="8.244433">
        <ele>75.463051</ele>
        <time>2026-08-05T14:56:42.269Z</time>
      </trkpt>
      <trkpt lat="51.884218" lon="8.244329">
        <ele>75.412791</ele>
        <time>2026-08-05T14:56:47.893Z</time>
      </trkpt>
      <trkpt lat="51.884121" lon="8.244283">
        <ele>75.349890</ele>
        <time>2026-08-05T14:56:54.867Z</time>
      </trkpt>
      <trkpt lat="51.884022" lon="8.244285">
        <ele>75.288272</ele>
        <time>2026-08-05T14:56:57.924Z</time>
      </trkpt>
      <trkpt lat="51.883895" lon="8.244287">
        <ele>75.209229</ele>
        <time>2026-08-05T14:57:01.837Z</time>
      </trkpt>
      <trkpt lat="51.883742" lon="8.244289">
        <ele>75.114006</ele>
        <time>2026-08-05T14:57:06.518Z</time>
      </trkpt>
      <trkpt lat="51.883726" lon="8.243854">
        <ele>74.946603</ele>
        <time>2026-08-05T14:57:12.594Z</time>
      </trkpt>
      <trkpt lat="51.883694" lon="8.243747">
        <ele>74.905785</ele>
        <time>2026-08-05T14:57:14.289Z</time>
      </trkpt>
      <trkpt lat="51.883639" lon="8.243590">
        <ele>74.847154</ele>
        <time>2026-08-05T14:57:16.841Z</time>
      </trkpt>
      <trkpt lat="51.883441" lon="8.243114">
        <ele>74.660728</ele>
        <time>2026-08-05T14:57:25.103Z</time>
      </trkpt>
      <trkpt lat="51.883271" lon="8.243297">
        <ele>74.553333</ele>
        <time>2026-08-05T14:57:30.103Z</time>
      </trkpt>
      <trkpt lat="51.883009" lon="8.243188">
        <ele>74.411003</ele>
        <time>2026-08-05T14:57:36.912Z</time>
      </trkpt>
      <trkpt lat="51.883000" lon="8.243117">
        <ele>74.387462</ele>
        <time>2026-08-05T14:57:38.801Z</time>
      </trkpt>
      <trkpt lat="51.882694" lon="8.242879">
        <ele>74.208859</ele>
        <time>2026-08-05T14:57:53.620Z</time>
      </trkpt>
      <trkpt lat="51.882635" lon="8.242833">
        <ele>74.174406</ele>
        <time>2026-08-05T14:57:56.539Z</time>
      </trkpt>
      <trkpt lat="51.882659" lon="8.242739">
        <ele>74.141367</ele>
        <time>2026-08-05T14:57:58.185Z</time>
      </trkpt>
      <trkpt lat="51.882331" lon="8.242516">
        <ele>73.979400</ele>
        <time>2026-08-05T14:58:10.823Z</time>
      </trkpt>
      <trkpt lat="51.882241" lon="8.242456">
        <ele>73.968824</ele>
        <time>2026-08-05T14:58:14.292Z</time>
      </trkpt>
      <trkpt lat="51.882049" lon="8.242202">
        <ele>73.941887</ele>
        <time>2026-08-05T14:58:23.396Z</time>
      </trkpt>
      <trkpt lat="51.882004" lon="8.242079">
        <ele>73.932295</ele>
        <time>2026-08-05T14:58:26.608Z</time>
      </trkpt>
      <trkpt lat="51.881832" lon="8.241832">
        <ele>73.907318</ele>
        <time>2026-08-05T14:58:34.755Z</time>
      </trkpt>
      <trkpt lat="51.881454" lon="8.241296">
        <ele>73.852727</ele>
        <time>2026-08-05T14:58:51.892Z</time>
      </trkpt>
      <trkpt lat="51.881402" lon="8.241242">
        <ele>73.846015</ele>
        <time>2026-08-05T14:58:54.605Z</time>
      </trkpt>
      <trkpt lat="51.881176" lon="8.240994">
        <ele>73.816351</ele>
        <time>2026-08-05T14:59:06.364Z</time>
      </trkpt>
      <trkpt lat="51.881113" lon="8.240921">
        <ele>73.807934</ele>
        <time>2026-08-05T14:59:09.695Z</time>
      </trkpt>
      <trkpt lat="51.881068" lon="8.241018">
        <ele>73.799794</ele>
        <time>2026-08-05T14:59:12.225Z</time>
      </trkpt>
      <trkpt lat="51.880930" lon="8.241305">
        <ele>73.752206</ele>
        <time>2026-08-05T14:59:19.754Z</time>
      </trkpt>
      <trkpt lat="51.880829" lon="8.241357">
        <ele>73.723019</ele>
        <time>2026-08-05T14:59:23.349Z</time>
      </trkpt>
      <trkpt lat="51.880763" lon="8.241338">
        <ele>73.704557</ele>
        <time>2026-08-05T14:59:25.596Z</time>
      </trkpt>
      <trkpt lat="51.880718" lon="8.241276">
        <ele>73.688288</ele>
        <time>2026-08-05T14:59:27.596Z</time>
      </trkpt>
      <trkpt lat="51.880659" lon="8.241194">
        <ele>73.666878</ele>
        <time>2026-08-05T14:59:30.204Z</time>
      </trkpt>
      <trkpt lat="51.880609" lon="8.240901">
        <ele>73.615197</ele>
        <time>2026-08-05T14:59:36.492Z</time>
      </trkpt>
      <trkpt lat="51.880361" lon="8.240865">
        <ele>73.546622</ele>
        <time>2026-08-05T14:59:44.722Z</time>
      </trkpt>
      <trkpt lat="51.880323" lon="8.240818">
        <ele>73.533455</ele>
        <time>2026-08-05T14:59:46.298Z</time>
      </trkpt>
      <trkpt lat="51.879984" lon="8.241486">
        <ele>73.386438</ele>
        <time>2026-08-05T15:00:04.340Z</time>
      </trkpt>
      <trkpt lat="51.879537" lon="8.240766">
        <ele>73.236423</ele>
        <time>2026-08-05T15:00:21.847Z</time>
      </trkpt>
      <trkpt lat="51.879459" lon="8.240643">
        <ele>73.215036</ele>
        <time>2026-08-05T15:00:24.830Z</time>
      </trkpt>
      <trkpt lat="51.879344" lon="8.240306">
        <ele>73.168334</ele>
        <time>2026-08-05T15:00:30.967Z</time>
      </trkpt>
      <trkpt lat="51.879260" lon="8.240093">
        <ele>73.137679</ele>
        <time>2026-08-05T15:00:34.973Z</time>
      </trkpt>
      <trkpt lat="51.879152" lon="8.239873">
        <ele>73.103588</ele>
        <time>2026-08-05T15:00:39.417Z</time>
      </trkpt>
      <trkpt lat="51.879082" lon="8.240031">
        <ele>73.080000</ele>
        <time>2026-08-05T15:00:42.462Z</time>
      </trkpt>
      <trkpt lat="51.879049" lon="8.240107">
        <ele>73.068731</ele>
        <time>2026-08-05T15:00:44.434Z</time>
      </trkpt>
      <trkpt lat="51.878966" lon="8.239916">
        <ele>73.040402</ele>
        <time>2026-08-05T15:00:50.709Z</time>
      </trkpt>
      <trkpt lat="51.878879" lon="8.239894">
        <ele>73.023102</ele>
        <time>2026-08-05T15:00:52.977Z</time>
      </trkpt>
      <trkpt lat="51.878223" lon="8.239221">
        <ele>72.866251</ele>
        <time>2026-08-05T15:01:12.904Z</time>
      </trkpt>
      <trkpt lat="51.877805" lon="8.238796">
        <ele>72.763446</ele>
        <time>2026-08-05T15:01:25.299Z</time>
      </trkpt>
      <trkpt lat="51.877730" lon="8.238721">
        <ele>72.745086</ele>
        <time>2026-08-05T15:01:27.549Z</time>
      </trkpt>
      <trkpt lat="51.876772" lon="8.237775">
        <ele>72.563214</ele>
        <time>2026-08-05T15:01:56.972Z</time>
      </trkpt>
      <trkpt lat="51.876686" lon="8.237693">
        <ele>72.561769</ele>
        <time>2026-08-05T15:01:59.558Z</time>
      </trkpt>
      <trkpt lat="51.876460" lon="8.237474">
        <ele>72.557957</ele>
        <time>2026-08-05T15:02:06.392Z</time>
      </trkpt>
      <trkpt lat="51.876280" lon="8.237312">
        <ele>72.554976</ele>
        <time>2026-08-05T15:02:11.799Z</time>
      </trkpt>
      <trkpt lat="51.875902" lon="8.237107">
        <ele>72.549205</ele>
        <time>2026-08-05T15:02:22.271Z</time>
      </trkpt>
      <trkpt lat="51.875466" lon="8.237069">
        <ele>72.542884</ele>
        <time>2026-08-05T15:02:33.978Z</time>
      </trkpt>
      <trkpt lat="51.875253" lon="8.237115">
        <ele>72.597219</ele>
        <time>2026-08-05T15:02:39.897Z</time>
      </trkpt>
      <trkpt lat="51.874749" lon="8.237240">
        <ele>72.922487</ele>
        <time>2026-08-05T15:02:54.447Z</time>
      </trkpt>
      <trkpt lat="51.873885" lon="8.237444">
        <ele>73.479491</ele>
        <time>2026-08-05T15:03:28.503Z</time>
      </trkpt>
      <trkpt lat="51.873562" lon="8.237463">
        <ele>73.685681</ele>
        <time>2026-08-05T15:03:41.364Z</time>
      </trkpt>
      <trkpt lat="51.873187" lon="8.237317">
        <ele>73.948748</ele>
        <time>2026-08-05T15:03:56.608Z</time>
      </trkpt>
      <trkpt lat="51.872504" lon="8.237448">
        <ele>74.418214</ele>
        <time>2026-08-05T15:04:23.173Z</time>
      </trkpt>
      <trkpt lat="51.872419" lon="8.237496">
        <ele>74.479659</ele>
        <time>2026-08-05T15:04:26.610Z</time>
      </trkpt>
      <trkpt lat="51.870741" lon="8.239366">
        <ele>75.811718</ele>
        <time>2026-08-05T15:05:42.810Z</time>
      </trkpt>
      <trkpt lat="51.870722" lon="8.239442">
        <ele>75.844164</ele>
        <time>2026-08-05T15:05:44.786Z</time>
      </trkpt>
      <trkpt lat="51.870075" lon="8.239272">
        <ele>76.452589</ele>
        <time>2026-08-05T15:06:05.651Z</time>
      </trkpt>
      <trkpt lat="51.868726" lon="8.238919">
        <ele>78.172934</ele>
        <time>2026-08-05T15:06:51.431Z</time>
      </trkpt>
      <trkpt lat="51.867785" lon="8.238673">
        <ele>78.878307</ele>
        <time>2026-08-05T15:07:21.223Z</time>
      </trkpt>
      <trkpt lat="51.867477" lon="8.238658">
        <ele>79.081666</ele>
        <time>2026-08-05T15:07:30.203Z</time>
      </trkpt>
      <trkpt lat="51.866539" lon="8.238623">
        <ele>79.648313</ele>
        <time>2026-08-05T15:07:56.612Z</time>
      </trkpt>
      <trkpt lat="51.866527" lon="8.239447">
        <ele>79.886405</ele>
        <time>2026-08-05T15:08:11.015Z</time>
      </trkpt>
      <trkpt lat="51.866114" lon="8.240004">
        <ele>80.137833</ele>
        <time>2026-08-05T15:08:26.590Z</time>
      </trkpt>
      <trkpt lat="51.865499" lon="8.240832">
        <ele>80.435650</ele>
        <time>2026-08-05T15:08:50.686Z</time>
      </trkpt>
      <trkpt lat="51.865109" lon="8.241363">
        <ele>80.552893</ele>
        <time>2026-08-05T15:09:05.559Z</time>
      </trkpt>
      <trkpt lat="51.863314" lon="8.243782">
        <ele>80.648069</ele>
        <time>2026-08-05T15:10:06.503Z</time>
      </trkpt>
      <trkpt lat="51.862914" lon="8.244264">
        <ele>80.610172</ele>
        <time>2026-08-05T15:10:19.666Z</time>
      </trkpt>
      <trkpt lat="51.861964" lon="8.245109">
        <ele>80.648197</ele>
        <time>2026-08-05T15:10:49.020Z</time>
      </trkpt>
      <trkpt lat="51.861489" lon="8.245534">
        <ele>80.667235</ele>
        <time>2026-08-05T15:11:03.734Z</time>
      </trkpt>
      <trkpt lat="51.860797" lon="8.246155">
        <ele>80.705242</ele>
        <time>2026-08-05T15:11:24.767Z</time>
      </trkpt>
      <trkpt lat="51.860563" lon="8.246367">
        <ele>80.718654</ele>
        <time>2026-08-05T15:11:31.989Z</time>
      </trkpt>
      <trkpt lat="51.860497" lon="8.246386">
        <ele>80.722007</ele>
        <time>2026-08-05T15:11:33.802Z</time>
      </trkpt>
      <trkpt lat="51.860607" lon="8.246833">
        <ele>80.736871</ele>
        <time>2026-08-05T15:11:41.857Z</time>
      </trkpt>
      <trkpt lat="51.860788" lon="8.247611">
        <ele>80.753330</ele>
        <time>2026-08-05T15:11:55.750Z</time>
      </trkpt>
      <trkpt lat="51.861061" lon="8.248686">
        <ele>80.591085</ele>
        <time>2026-08-05T15:12:27.716Z</time>
      </trkpt>
      <trkpt lat="51.861093" lon="8.249329">
        <ele>80.501041</ele>
        <time>2026-08-05T15:12:45.177Z</time>
      </trkpt>
      <trkpt lat="51.861138" lon="8.250027">
        <ele>80.403081</ele>
        <time>2026-08-05T15:12:56.549Z</time>
      </trkpt>
      <trkpt lat="51.861983" lon="8.253628">
        <ele>78.724021</ele>
        <time>2026-08-05T15:13:55.542Z</time>
      </trkpt>
      <trkpt lat="51.859560" lon="8.255154">
        <ele>76.968942</ele>
        <time>2026-08-05T15:15:43.300Z</time>
      </trkpt>
      <trkpt lat="51.858827" lon="8.255655">
        <ele>76.561880</ele>
        <time>2026-08-05T15:16:17.440Z</time>
      </trkpt>
      <trkpt lat="51.858813" lon="8.255664">
        <ele>76.558520</ele>
        <time>2026-08-05T15:16:18.090Z</time>
      </trkpt>
      <trkpt lat="51.855248" lon="8.257520">
        <ele>75.557774</ele>
        <time>2026-08-05T15:19:01.480Z</time>
      </trkpt>
      <trkpt lat="51.855192" lon="8.257551">
        <ele>75.516295</ele>
        <time>2026-08-05T15:19:03.937Z</time>
      </trkpt>
      <trkpt lat="51.853277" lon="8.258617">
        <ele>74.290821</ele>
        <time>2026-08-05T15:20:26.913Z</time>
      </trkpt>
      <trkpt lat="51.852352" lon="8.259138">
        <ele>73.915053</ele>
        <time>2026-08-05T15:21:09.183Z</time>
      </trkpt>
      <trkpt lat="51.851949" lon="8.259297">
        <ele>73.999834</ele>
        <time>2026-08-05T15:21:27.910Z</time>
      </trkpt>
      <trkpt lat="51.851539" lon="8.259524">
        <ele>74.345348</ele>
        <time>2026-08-05T15:21:47.916Z</time>
      </trkpt>
      <trkpt lat="51.850463" lon="8.260162">
        <ele>75.259061</ele>
        <time>2026-08-05T15:22:44.191Z</time>
      </trkpt>
      <trkpt lat="51.850094" lon="8.260430">
        <ele>76.003731</ele>
        <time>2026-08-05T15:23:06.024Z</time>
      </trkpt>
      <trkpt lat="51.849068" lon="8.261062">
        <ele>78.062743</ele>
        <time>2026-08-05T15:24:06.780Z</time>
      </trkpt>
      <trkpt lat="51.848456" lon="8.261439">
        <ele>78.832292</ele>
        <time>2026-08-05T15:24:41.065Z</time>
      </trkpt>
      <trkpt lat="51.848673" lon="8.263678">
        <ele>79.599617</ele>
        <time>2026-08-05T15:25:45.386Z</time>
      </trkpt>
      <trkpt lat="51.848830" lon="8.265804">
        <ele>79.104043</ele>
        <time>2026-08-05T15:26:41.477Z</time>
      </trkpt>
      <trkpt lat="51.849028" lon="8.269386">
        <ele>78.157772</ele>
        <time>2026-08-05T15:28:14.839Z</time>
      </trkpt>
      <trkpt lat="51.849111" lon="8.271038">
        <ele>78.188104</ele>
        <time>2026-08-05T15:29:02.132Z</time>
      </trkpt>
      <trkpt lat="51.849143" lon="8.271456">
        <ele>78.209644</ele>
        <time>2026-08-05T15:29:09.604Z</time>
      </trkpt>
      <trkpt lat="51.849168" lon="8.271798">
        <ele>78.227256</ele>
        <time>2026-08-05T15:29:15.441Z</time>
      </trkpt>
      <trkpt lat="51.849187" lon="8.272070">
        <ele>78.241255</ele>
        <time>2026-08-05T15:29:19.996Z</time>
      </trkpt>
      <trkpt lat="51.849197" lon="8.272208">
        <ele>78.248361</ele>
        <time>2026-08-05T15:29:22.303Z</time>
      </trkpt>
      <trkpt lat="51.849262" lon="8.273175">
        <ele>77.905399</ele>
        <time>2026-08-05T15:29:37.553Z</time>
      </trkpt>
      <trkpt lat="51.849293" lon="8.273619">
        <ele>77.686182</ele>
        <time>2026-08-05T15:29:44.007Z</time>
      </trkpt>
      <trkpt lat="51.849297" lon="8.273676">
        <ele>77.658037</ele>
        <time>2026-08-05T15:29:44.832Z</time>
      </trkpt>
      <trkpt lat="51.849318" lon="8.273932">
        <ele>77.531339</ele>
        <time>2026-08-05T15:29:48.444Z</time>
      </trkpt>
      <trkpt lat="51.849449" lon="8.275419">
        <ele>76.778458</ele>
        <time>2026-08-05T15:30:09.793Z</time>
      </trkpt>
      <trkpt lat="51.849484" lon="8.275786">
        <ele>76.519957</ele>
        <time>2026-08-05T15:30:15.060Z</time>
      </trkpt>
      <trkpt lat="51.849544" lon="8.276425">
        <ele>76.070029</ele>
        <time>2026-08-05T15:30:24.204Z</time>
      </trkpt>
      <trkpt lat="51.849562" lon="8.276634">
        <ele>75.923134</ele>
        <time>2026-08-05T15:30:27.171Z</time>
      </trkpt>
      <trkpt lat="51.849579" lon="8.276826">
        <ele>75.788114</ele>
        <time>2026-08-05T15:30:29.900Z</time>
      </trkpt>
      <trkpt lat="51.849637" lon="8.277420">
        <ele>75.369488</ele>
        <time>2026-08-05T15:30:38.432Z</time>
      </trkpt>
      <trkpt lat="51.849733" lon="8.278500">
        <ele>74.649717</ele>
        <time>2026-08-05T15:30:53.742Z</time>
      </trkpt>
      <trkpt lat="51.849795" lon="8.278990">
        <ele>74.372304</ele>
        <time>2026-08-05T15:31:00.692Z</time>
      </trkpt>
      <trkpt lat="51.849844" lon="8.279358">
        <ele>74.163511</ele>
        <time>2026-08-05T15:31:06.035Z</time>
      </trkpt>
      <trkpt lat="51.849933" lon="8.280031">
        <ele>73.781785</ele>
        <time>2026-08-05T15:31:15.997Z</time>
      </trkpt>
      <trkpt lat="51.849995" lon="8.280504">
        <ele>73.513603</ele>
        <time>2026-08-05T15:31:23.121Z</time>
      </trkpt>
      <trkpt lat="51.850067" lon="8.281084">
        <ele>73.189329</ele>
        <time>2026-08-05T15:31:31.926Z</time>
      </trkpt>
      <trkpt lat="51.850175" lon="8.281895">
        <ele>73.067660</ele>
        <time>2026-08-05T15:31:44.606Z</time>
      </trkpt>
      <trkpt lat="51.850215" lon="8.282183">
        <ele>73.024369</ele>
        <time>2026-08-05T15:31:49.233Z</time>
      </trkpt>
      <trkpt lat="51.850388" lon="8.283418">
        <ele>72.838654</ele>
        <time>2026-08-05T15:32:09.835Z</time>
      </trkpt>
      <trkpt lat="51.850511" lon="8.284326">
        <ele>72.779887</ele>
        <time>2026-08-05T15:32:25.414Z</time>
      </trkpt>
      <trkpt lat="51.850615" lon="8.285030">
        <ele>72.807904</ele>
        <time>2026-08-05T15:32:37.326Z</time>
      </trkpt>
      <trkpt lat="51.850717" lon="8.285740">
        <ele>72.836119</ele>
        <time>2026-08-05T15:32:49.317Z</time>
      </trkpt>
      <trkpt lat="51.850913" lon="8.287113">
        <ele>72.926402</ele>
        <time>2026-08-05T15:33:12.947Z</time>
      </trkpt>
      <trkpt lat="51.850986" lon="8.287086">
        <ele>72.942847</ele>
        <time>2026-08-05T15:33:14.976Z</time>
      </trkpt>
      <trkpt lat="51.850986" lon="8.287086">
        <ele>72.942847</ele>
        <time>2026-08-05T15:33:14.987Z</time>
      </trkpt>
      <trkpt lat="51.851482" lon="8.287806">
        <ele>73.089154</ele>
        <time>2026-08-05T15:33:32.215Z</time>
      </trkpt>
      <trkpt lat="51.851482" lon="8.287806">
        <ele>73.089154</ele>
        <time>2026-08-05T15:33:32.223Z</time>
      </trkpt>
      <trkpt lat="51.851928" lon="8.288628">
        <ele>73.237572</ele>
        <time>2026-08-05T15:33:49.692Z</time>
      </trkpt>
      <trkpt lat="51.852180" lon="8.288371">
        <ele>73.332650</ele>
        <time>2026-08-05T15:33:57.983Z</time>
      </trkpt>
      <trkpt lat="51.852267" lon="8.288284">
        <ele>73.376207</ele>
        <time>2026-08-05T15:34:00.799Z</time>
      </trkpt>
      <trkpt lat="51.852359" lon="8.288540">
        <ele>73.454132</ele>
        <time>2026-08-05T15:34:06.087Z</time>
      </trkpt>
      <trkpt lat="51.852363" lon="8.289384">
        <ele>73.676199</ele>
        <time>2026-08-05T15:34:22.175Z</time>
      </trkpt>
      <trkpt lat="51.852363" lon="8.289492">
        <ele>73.704614</ele>
        <time>2026-08-05T15:34:24.265Z</time>
      </trkpt>
      <trkpt lat="51.852347" lon="8.289694">
        <ele>73.758196</ele>
        <time>2026-08-05T15:34:28.201Z</time>
      </trkpt>
      <trkpt lat="51.852269" lon="8.290647">
        <ele>74.011126</ele>
        <time>2026-08-05T15:34:46.177Z</time>
      </trkpt>
      <trkpt lat="51.852187" lon="8.290934">
        <ele>73.926775</ele>
        <time>2026-08-05T15:34:51.853Z</time>
      </trkpt>
      <trkpt lat="51.852132" lon="8.291382">
        <ele>73.692406</ele>
        <time>2026-08-05T15:34:59.434Z</time>
      </trkpt>
      <trkpt lat="51.852096" lon="8.291668">
        <ele>73.542640</ele>
        <time>2026-08-05T15:35:04.014Z</time>
      </trkpt>
      <trkpt lat="51.852073" lon="8.291748">
        <ele>73.497363</ele>
        <time>2026-08-05T15:35:05.336Z</time>
      </trkpt>
      <trkpt lat="51.851889" lon="8.292382">
        <ele>73.137933</ele>
        <time>2026-08-05T15:35:15.612Z</time>
      </trkpt>
      <trkpt lat="51.851824" lon="8.292354">
        <ele>73.082059</ele>
        <time>2026-08-05T15:35:20.255Z</time>
      </trkpt>
      <trkpt lat="51.851889" lon="8.292382">
        <ele>73.026186</ele>
        <time>2026-08-05T15:35:24.899Z</time>
      </trkpt>
      <trkpt lat="51.851864" lon="8.292469">
        <ele>72.976951</ele>
        <time>2026-08-05T15:35:26.261Z</time>
      </trkpt>
      <trkpt lat="51.851595" lon="8.293481">
        <ele>72.525424</ele>
        <time>2026-08-05T15:35:41.993Z</time>
      </trkpt>
      <trkpt lat="51.851496" lon="8.293856">
        <ele>72.496844</ele>
        <time>2026-08-05T15:35:48.072Z</time>
      </trkpt>
      <trkpt lat="51.851432" lon="8.294098">
        <ele>72.478396</ele>
        <time>2026-08-05T15:35:52.121Z</time>
      </trkpt>
      <trkpt lat="51.851197" lon="8.294974">
        <ele>72.411465</ele>
        <time>2026-08-05T15:36:08.330Z</time>
      </trkpt>
      <trkpt lat="51.851145" lon="8.295167">
        <ele>72.396708</ele>
        <time>2026-08-05T15:36:12.265Z</time>
      </trkpt>
      <trkpt lat="51.851134" lon="8.295210">
        <ele>72.393447</ele>
        <time>2026-08-05T15:36:13.131Z</time>
      </trkpt>
      <trkpt lat="51.851067" lon="8.295470">
        <ele>72.373703</ele>
        <time>2026-08-05T15:36:18.580Z</time>
      </trkpt>
      <trkpt lat="51.851024" lon="8.295637">
        <ele>72.361024</ele>
        <time>2026-08-05T15:36:22.175Z</time>
      </trkpt>
      <trkpt lat="51.850987" lon="8.295754">
        <ele>72.351812</ele>
        <time>2026-08-05T15:36:24.854Z</time>
      </trkpt>
      <trkpt lat="51.850927" lon="8.295906">
        <ele>72.339071</ele>
        <time>2026-08-05T15:36:28.574Z</time>
      </trkpt>
      <trkpt lat="51.850820" lon="8.295784">
        <ele>72.316393</ele>
        <time>2026-08-05T15:36:32.938Z</time>
      </trkpt>
      <trkpt lat="51.850927" lon="8.295906">
        <ele>72.293715</ele>
        <time>2026-08-05T15:36:37.247Z</time>
      </trkpt>
      <trkpt lat="51.851064" lon="8.296067">
        <ele>72.264380</ele>
        <time>2026-08-05T15:36:49.038Z</time>
      </trkpt>
      <trkpt lat="51.851328" lon="8.296233">
        <ele>72.215304</ele>
        <time>2026-08-05T15:37:08.675Z</time>
      </trkpt>
      <trkpt lat="51.851471" lon="8.296399">
        <ele>72.184813</ele>
        <time>2026-08-05T15:37:20.917Z</time>
      </trkpt>
      <trkpt lat="51.851534" lon="8.296539">
        <ele>72.166273</ele>
        <time>2026-08-05T15:37:28.334Z</time>
      </trkpt>
      <trkpt lat="51.851621" lon="8.296887">
        <ele>72.126089</ele>
        <time>2026-08-05T15:37:44.469Z</time>
      </trkpt>
      <trkpt lat="51.851685" lon="8.297186">
        <ele>72.092219</ele>
        <time>2026-08-05T15:37:58.068Z</time>
      </trkpt>
      <trkpt lat="51.851686" lon="8.297211">
        <ele>72.089537</ele>
        <time>2026-08-05T15:37:59.134Z</time>
      </trkpt>
      <trkpt lat="51.851693" lon="8.297495">
        <ele>72.059115</ele>
        <time>2026-08-05T15:38:11.344Z</time>
      </trkpt>
      <trkpt lat="51.851659" lon="8.297685">
        <ele>72.037942</ele>
        <time>2026-08-05T15:38:19.837Z</time>
      </trkpt>
      <trkpt lat="51.851526" lon="8.298126">
        <ele>71.960463</ele>
        <time>2026-08-05T15:38:40.916Z</time>
      </trkpt>
      <trkpt lat="51.851494" lon="8.298456">
        <ele>71.903606</ele>
        <time>2026-08-05T15:38:55.247Z</time>
      </trkpt>
      <trkpt lat="51.851558" lon="8.298936">
        <ele>71.820024</ele>
        <time>2026-08-05T15:39:16.334Z</time>
      </trkpt>
      <trkpt lat="51.851668" lon="8.299533">
        <ele>71.713985</ele>
        <time>2026-08-05T15:39:43.076Z</time>
      </trkpt>
      <trkpt lat="51.851740" lon="8.299926">
        <ele>71.644212</ele>
        <time>2026-08-05T15:40:00.669Z</time>
      </trkpt>
      <trkpt lat="51.851752" lon="8.299991">
        <ele>71.632665</ele>
        <time>2026-08-05T15:40:03.596Z</time>
      </trkpt>
      <trkpt lat="51.851808" lon="8.300280">
        <ele>71.581111</ele>
        <time>2026-08-05T15:40:16.615Z</time>
      </trkpt>
      <trkpt lat="51.851934" lon="8.300963">
        <ele>71.390969</ele>
        <time>2026-08-05T15:40:47.166Z</time>
      </trkpt>
      <trkpt lat="51.851604" lon="8.301210">
        <ele>71.195410</ele>
        <time>2026-08-05T15:41:12.427Z</time>
      </trkpt>
      <trkpt lat="51.851421" lon="8.301433">
        <ele>71.072206</ele>
        <time>2026-08-05T15:41:28.379Z</time>
      </trkpt>
      <trkpt lat="51.850959" lon="8.302237">
        <ele>70.707350</ele>
        <time>2026-08-05T15:42:15.479Z</time>
      </trkpt>
      <trkpt lat="51.850859" lon="8.302314">
        <ele>70.647786</ele>
        <time>2026-08-05T15:42:23.221Z</time>
      </trkpt>
      <trkpt lat="51.850276" lon="8.302484">
        <ele>70.259596</ele>
        <time>2026-08-05T15:43:04.330Z</time>
      </trkpt>
      <trkpt lat="51.850001" lon="8.302508">
        <ele>70.067698</ele>
        <time>2026-08-05T15:43:23.526Z</time>
      </trkpt>
      <trkpt lat="51.849931" lon="8.302471">
        <ele>70.016389</ele>
        <time>2026-08-05T15:43:28.598Z</time>
      </trkpt>
      <trkpt lat="51.849828" lon="8.302284">
        <ele>69.908548</ele>
        <time>2026-08-05T15:43:39.382Z</time>
      </trkpt>
      <trkpt lat="51.849784" lon="8.302168">
        <ele>69.849957</ele>
        <time>2026-08-05T15:43:45.244Z</time>
      </trkpt>
      <trkpt lat="51.849302" lon="8.300894">
        <ele>69.417696</ele>
        <time>2026-08-05T15:44:49.355Z</time>
      </trkpt>
      <trkpt lat="51.849246" lon="8.300786">
        <ele>69.479562</ele>
        <time>2026-08-05T15:44:55.419Z</time>
      </trkpt>
      <trkpt lat="51.849198" lon="8.300759">
        <ele>69.515654</ele>
        <time>2026-08-05T15:44:58.896Z</time>
      </trkpt>
      <trkpt lat="51.849028" lon="8.300778">
        <ele>69.636686</ele>
        <time>2026-08-05T15:45:10.765Z</time>
      </trkpt>
      <trkpt lat="51.848920" lon="8.300826">
        <ele>69.716233</ele>
        <time>2026-08-05T15:45:18.556Z</time>
      </trkpt>
      <trkpt lat="51.848412" lon="8.301177">
        <ele>70.108540</ele>
        <time>2026-08-05T15:45:56.932Z</time>
      </trkpt>
      <trkpt lat="51.848386" lon="8.301142">
        <ele>70.132557</ele>
        <time>2026-08-05T15:45:59.301Z</time>
      </trkpt>
      <trkpt lat="51.848318" lon="8.300827">
        <ele>70.278964</ele>
        <time>2026-08-05T15:46:13.627Z</time>
      </trkpt>
      <trkpt lat="51.848189" lon="8.300289">
        <ele>70.532176</ele>
        <time>2026-08-05T15:46:26.764Z</time>
      </trkpt>
      <trkpt lat="51.848175" lon="8.300230">
        <ele>70.559908</ele>
        <time>2026-08-05T15:46:28.235Z</time>
      </trkpt>
      <trkpt lat="51.848134" lon="8.300057">
        <ele>70.669322</ele>
        <time>2026-08-05T15:46:32.463Z</time>
      </trkpt>
      <trkpt lat="51.847956" lon="8.300204">
        <ele>70.887397</ele>
        <time>2026-08-05T15:46:39.959Z</time>
      </trkpt>
      <trkpt lat="51.847522" lon="8.300408">
        <ele>71.380595</ele>
        <time>2026-08-05T15:46:57.146Z</time>
      </trkpt>
      <trkpt lat="51.847358" lon="8.300382">
        <ele>71.560429</ele>
        <time>2026-08-05T15:47:03.301Z</time>
      </trkpt>
      <trkpt lat="51.847243" lon="8.300446">
        <ele>71.693141</ele>
        <time>2026-08-05T15:47:07.777Z</time>
      </trkpt>
      <trkpt lat="51.847119" lon="8.300529">
        <ele>71.839579</ele>
        <time>2026-08-05T15:47:13.327Z</time>
      </trkpt>
      <trkpt lat="51.847021" lon="8.300591">
        <ele>71.954406</ele>
        <time>2026-08-05T15:47:17.503Z</time>
      </trkpt>
      <trkpt lat="51.846671" lon="8.300766">
        <ele>72.354177</ele>
        <time>2026-08-05T15:47:31.433Z</time>
      </trkpt>
      <trkpt lat="51.846546" lon="8.300829">
        <ele>72.497052</ele>
        <time>2026-08-05T15:47:36.167Z</time>
      </trkpt>
      <trkpt lat="51.846586" lon="8.301019">
        <ele>72.514781</ele>
        <time>2026-08-05T15:47:39.905Z</time>
      </trkpt>
      <trkpt lat="51.846582" lon="8.301155">
        <ele>72.472759</ele>
        <time>2026-08-05T15:47:42.378Z</time>
      </trkpt>
      <trkpt lat="51.846552" lon="8.301293">
        <ele>72.427606</ele>
        <time>2026-08-05T15:47:44.950Z</time>
      </trkpt>
      <trkpt lat="51.846519" lon="8.301445">
        <ele>72.377880</ele>
        <time>2026-08-05T15:47:47.759Z</time>
      </trkpt>
      <trkpt lat="51.846482" lon="8.301786">
        <ele>72.271023</ele>
        <time>2026-08-05T15:47:53.774Z</time>
      </trkpt>
      <trkpt lat="51.846488" lon="8.302040">
        <ele>72.192571</ele>
        <time>2026-08-05T15:47:58.102Z</time>
      </trkpt>
      <trkpt lat="51.846525" lon="8.302440">
        <ele>72.067738</ele>
        <time>2026-08-05T15:48:04.073Z</time>
      </trkpt>
      <trkpt lat="51.846503" lon="8.302770">
        <ele>71.965296</ele>
        <time>2026-08-05T15:48:09.462Z</time>
      </trkpt>
      <trkpt lat="51.846420" lon="8.303000">
        <ele>71.883084</ele>
        <time>2026-08-05T15:48:13.791Z</time>
      </trkpt>
      <trkpt lat="51.846352" lon="8.303080">
        <ele>71.841086</ele>
        <time>2026-08-05T15:48:16.028Z</time>
      </trkpt>
      <trkpt lat="51.845768" lon="8.303005">
        <ele>71.526957</ele>
        <time>2026-08-05T15:48:30.066Z</time>
      </trkpt>
      <trkpt lat="51.845075" lon="8.302916">
        <ele>71.108511</ele>
        <time>2026-08-05T15:48:46.655Z</time>
      </trkpt>
      <trkpt lat="51.844915" lon="8.302900">
        <ele>71.012020</ele>
        <time>2026-08-05T15:48:50.500Z</time>
      </trkpt>
      <trkpt lat="51.844837" lon="8.302962">
        <ele>70.959714</ele>
        <time>2026-08-05T15:48:52.558Z</time>
      </trkpt>
      <trkpt lat="51.844703" lon="8.303077">
        <ele>70.868420</ele>
        <time>2026-08-05T15:48:56.215Z</time>
      </trkpt>
      <trkpt lat="51.844482" lon="8.303284">
        <ele>70.714728</ele>
        <time>2026-08-05T15:49:02.400Z</time>
      </trkpt>
      <trkpt lat="51.844381" lon="8.303380">
        <ele>70.644227</ele>
        <time>2026-08-05T15:49:07.383Z</time>
      </trkpt>
      <trkpt lat="51.844077" lon="8.303657">
        <ele>70.607880</ele>
        <time>2026-08-05T15:49:16.183Z</time>
      </trkpt>
      <trkpt lat="51.843813" lon="8.303845">
        <ele>70.655585</ele>
        <time>2026-08-05T15:49:23.892Z</time>
      </trkpt>
      <trkpt lat="51.843518" lon="8.303996">
        <ele>70.706759</ele>
        <time>2026-08-05T15:49:32.555Z</time>
      </trkpt>
      <trkpt lat="51.843021" lon="8.304092">
        <ele>70.789545</ele>
        <time>2026-08-05T15:49:46.840Z</time>
      </trkpt>
      <trkpt lat="51.842580" lon="8.304132">
        <ele>70.862600</ele>
        <time>2026-08-05T15:49:59.597Z</time>
      </trkpt>
      <trkpt lat="51.841774" lon="8.304313">
        <ele>71.096438</ele>
        <time>2026-08-05T15:50:22.631Z</time>
      </trkpt>
      <trkpt lat="51.841523" lon="8.304331">
        <ele>71.169905</ele>
        <time>2026-08-05T15:50:29.651Z</time>
      </trkpt>
      <trkpt lat="51.841262" lon="8.304297">
        <ele>71.246472</ele>
        <time>2026-08-05T15:50:36.981Z</time>
      </trkpt>
      <trkpt lat="51.841077" lon="8.304296">
        <ele>71.300569</ele>
        <time>2026-08-05T15:50:42.148Z</time>
      </trkpt>
      <trkpt lat="51.840666" lon="8.304294">
        <ele>71.431103</ele>
        <time>2026-08-05T15:50:53.615Z</time>
      </trkpt>
      <trkpt lat="51.840259" lon="8.304376">
        <ele>71.597253</ele>
        <time>2026-08-05T15:51:05.007Z</time>
      </trkpt>
      <trkpt lat="51.839846" lon="8.304525">
        <ele>71.768668</ele>
        <time>2026-08-05T15:51:16.968Z</time>
      </trkpt>
      <trkpt lat="51.839424" lon="8.304786">
        <ele>71.951680</ele>
        <time>2026-08-05T15:51:30.279Z</time>
      </trkpt>
      <trkpt lat="51.839398" lon="8.304812">
        <ele>71.964061</ele>
        <time>2026-08-05T15:51:31.185Z</time>
      </trkpt>
      <trkpt lat="51.839067" lon="8.305081">
        <ele>72.114107</ele>
        <time>2026-08-05T15:51:42.215Z</time>
      </trkpt>
      <trkpt lat="51.838551" lon="8.305717">
        <ele>72.170376</ele>
        <time>2026-08-05T15:52:00.601Z</time>
      </trkpt>
      <trkpt lat="51.838455" lon="8.305816">
        <ele>72.179052</ele>
        <time>2026-08-05T15:52:03.667Z</time>
      </trkpt>
      <trkpt lat="51.838299" lon="8.305872">
        <ele>72.191229</ele>
        <time>2026-08-05T15:52:07.964Z</time>
      </trkpt>
      <trkpt lat="51.837870" lon="8.306244">
        <ele>72.228321</ele>
        <time>2026-08-05T15:52:20.847Z</time>
      </trkpt>
      <trkpt lat="51.837793" lon="8.306224">
        <ele>72.234264</ele>
        <time>2026-08-05T15:52:24.272Z</time>
      </trkpt>
      <trkpt lat="51.837556" lon="8.306115">
        <ele>72.253041</ele>
        <time>2026-08-05T15:52:30.662Z</time>
      </trkpt>
      <trkpt lat="51.837531" lon="8.306102">
        <ele>72.255042</ele>
        <time>2026-08-05T15:52:31.782Z</time>
      </trkpt>
      <trkpt lat="51.837091" lon="8.306493">
        <ele>72.276496</ele>
        <time>2026-08-05T15:52:44.379Z</time>
      </trkpt>
      <trkpt lat="51.836991" lon="8.306499">
        <ele>72.280319</ele>
        <time>2026-08-05T15:52:46.929Z</time>
      </trkpt>
      <trkpt lat="51.836920" lon="8.306462">
        <ele>72.283169</ele>
        <time>2026-08-05T15:52:48.825Z</time>
      </trkpt>
      <trkpt lat="51.836872" lon="8.306353">
        <ele>72.286329</ele>
        <time>2026-08-05T15:52:50.970Z</time>
      </trkpt>
      <trkpt lat="51.836738" lon="8.306369">
        <ele>72.291462</ele>
        <time>2026-08-05T15:52:54.498Z</time>
      </trkpt>
      <trkpt lat="51.836650" lon="8.306429">
        <ele>72.295110</ele>
        <time>2026-08-05T15:52:57.097Z</time>
      </trkpt>
      <trkpt lat="51.836335" lon="8.306899">
        <ele>72.311480</ele>
        <time>2026-08-05T15:53:09.118Z</time>
      </trkpt>
      <trkpt lat="51.836080" lon="8.307062">
        <ele>72.321954</ele>
        <time>2026-08-05T15:53:16.883Z</time>
      </trkpt>
      <trkpt lat="51.835835" lon="8.307323">
        <ele>72.363961</ele>
        <time>2026-08-05T15:53:25.115Z</time>
      </trkpt>
      <trkpt lat="51.835781" lon="8.307342">
        <ele>72.379518</ele>
        <time>2026-08-05T15:53:26.653Z</time>
      </trkpt>
      <trkpt lat="51.835631" lon="8.307529">
        <ele>72.432823</ele>
        <time>2026-08-05T15:53:31.913Z</time>
      </trkpt>
      <trkpt lat="51.835429" lon="8.307694">
        <ele>72.496524</ele>
        <time>2026-08-05T15:53:38.203Z</time>
      </trkpt>
      <trkpt lat="51.835347" lon="8.307863">
        <ele>72.533903</ele>
        <time>2026-08-05T15:53:41.869Z</time>
      </trkpt>
      <trkpt lat="51.835222" lon="8.307909">
        <ele>72.569991</ele>
        <time>2026-08-05T15:53:46.559Z</time>
      </trkpt>
      <trkpt lat="51.835166" lon="8.307898">
        <ele>72.585872</ele>
        <time>2026-08-05T15:53:48.608Z</time>
      </trkpt>
      <trkpt lat="51.834931" lon="8.307501">
        <ele>72.681509</ele>
        <time>2026-08-05T15:54:04.258Z</time>
      </trkpt>
      <trkpt lat="51.834880" lon="8.307471">
        <ele>72.696786</ele>
        <time>2026-08-05T15:54:06.758Z</time>
      </trkpt>
      <trkpt lat="51.834629" lon="8.307324">
        <ele>72.771933</ele>
        <time>2026-08-05T15:54:18.956Z</time>
      </trkpt>
      <trkpt lat="51.834508" lon="8.307353">
        <ele>72.806368</ele>
        <time>2026-08-05T15:54:24.553Z</time>
      </trkpt>
      <trkpt lat="51.834404" lon="8.307466">
        <ele>72.842572</ele>
        <time>2026-08-05T15:54:30.263Z</time>
      </trkpt>
      <trkpt lat="51.834283" lon="8.307772">
        <ele>72.914296</ele>
        <time>2026-08-05T15:54:40.602Z</time>
      </trkpt>
      <trkpt lat="51.834187" lon="8.308050">
        <ele>72.977171</ele>
        <time>2026-08-05T15:54:49.641Z</time>
      </trkpt>
      <trkpt lat="51.834151" lon="8.308015">
        <ele>72.990590</ele>
        <time>2026-08-05T15:54:51.156Z</time>
      </trkpt>
      <trkpt lat="51.834114" lon="8.307978">
        <ele>73.004486</ele>
        <time>2026-08-05T15:54:52.751Z</time>
      </trkpt>
      <trkpt lat="51.833740" lon="8.307655">
        <ele>73.139931</ele>
        <time>2026-08-05T15:55:08.254Z</time>
      </trkpt>
      <trkpt lat="51.833343" lon="8.307572">
        <ele>73.267828</ele>
        <time>2026-08-05T15:55:23.308Z</time>
      </trkpt>
      <trkpt lat="51.833194" lon="8.307629">
        <ele>73.316745</ele>
        <time>2026-08-05T15:55:27.727Z</time>
      </trkpt>
      <trkpt lat="51.832965" lon="8.307837">
        <ele>73.400648</ele>
        <time>2026-08-05T15:55:35.377Z</time>
      </trkpt>
      <trkpt lat="51.832868" lon="8.308035">
        <ele>73.433039</ele>
        <time>2026-08-05T15:55:39.949Z</time>
      </trkpt>
      <trkpt lat="51.832781" lon="8.308646">
        <ele>73.504242</ele>
        <time>2026-08-05T15:55:51.141Z</time>
      </trkpt>
      <trkpt lat="51.832663" lon="8.308653">
        <ele>73.525942</ele>
        <time>2026-08-05T15:55:59.306Z</time>
      </trkpt>
      <trkpt lat="51.832577" lon="8.308772">
        <ele>73.546735</ele>
        <time>2026-08-05T15:56:07.190Z</time>
      </trkpt>
      <trkpt lat="51.832556" lon="8.308825">
        <ele>73.553885</ele>
        <time>2026-08-05T15:56:09.905Z</time>
      </trkpt>
      <trkpt lat="51.832577" lon="8.308772">
        <ele>73.561035</ele>
        <time>2026-08-05T15:56:12.619Z</time>
      </trkpt>
      <trkpt lat="51.832663" lon="8.308653">
        <ele>73.581829</ele>
        <time>2026-08-05T15:56:20.504Z</time>
      </trkpt>
      <trkpt lat="51.832781" lon="8.308646">
        <ele>73.603528</ele>
        <time>2026-08-05T15:56:28.669Z</time>
      </trkpt>
      <trkpt lat="51.832644" lon="8.309332">
        <ele>73.685398</ele>
        <time>2026-08-05T15:56:41.573Z</time>
      </trkpt>
      <trkpt lat="51.832499" lon="8.309547">
        <ele>73.721538</ele>
        <time>2026-08-05T15:56:47.159Z</time>
      </trkpt>
      <trkpt lat="51.832390" lon="8.309686">
        <ele>73.740254</ele>
        <time>2026-08-05T15:56:51.091Z</time>
      </trkpt>
      <trkpt lat="51.832106" lon="8.310043">
        <ele>73.743683</ele>
        <time>2026-08-05T15:57:01.026Z</time>
      </trkpt>
      <trkpt lat="51.831704" lon="8.310786">
        <ele>73.749502</ele>
        <time>2026-08-05T15:57:18.081Z</time>
      </trkpt>
      <trkpt lat="51.831494" lon="8.310656">
        <ele>73.751646</ele>
        <time>2026-08-05T15:57:24.146Z</time>
      </trkpt>
      <trkpt lat="51.831451" lon="8.310599">
        <ele>73.752176</ele>
        <time>2026-08-05T15:57:25.680Z</time>
      </trkpt>
      <trkpt lat="51.831407" lon="8.310542">
        <ele>73.752714</ele>
        <time>2026-08-05T15:57:27.148Z</time>
      </trkpt>
      <trkpt lat="51.831148" lon="8.310382">
        <ele>73.755357</ele>
        <time>2026-08-05T15:57:34.479Z</time>
      </trkpt>
      <trkpt lat="51.831125" lon="8.310365">
        <ele>73.755598</ele>
        <time>2026-08-05T15:57:35.114Z</time>
      </trkpt>
      <trkpt lat="51.830920" lon="8.310216">
        <ele>73.743406</ele>
        <time>2026-08-05T15:57:41.022Z</time>
      </trkpt>
      <trkpt lat="51.830825" lon="8.310145">
        <ele>73.724197</ele>
        <time>2026-08-05T15:57:43.739Z</time>
      </trkpt>
      <trkpt lat="51.830776" lon="8.310203">
        <ele>73.713053</ele>
        <time>2026-08-05T15:57:45.303Z</time>
      </trkpt>
      <trkpt lat="51.830859" lon="8.310282">
        <ele>73.695377</ele>
        <time>2026-08-05T15:57:47.758Z</time>
      </trkpt>
      <trkpt lat="51.830986" lon="8.310379">
        <ele>73.669598</ele>
        <time>2026-08-05T15:57:51.375Z</time>
      </trkpt>
      <trkpt lat="51.831086" lon="8.310441">
        <ele>73.649940</ele>
        <time>2026-08-05T15:57:54.252Z</time>
      </trkpt>
      <trkpt lat="51.830997" lon="8.310699">
        <ele>73.616422</ele>
        <time>2026-08-05T15:57:59.217Z</time>
      </trkpt>
      <trkpt lat="51.830864" lon="8.310961">
        <ele>73.577959</ele>
        <time>2026-08-05T15:58:04.669Z</time>
      </trkpt>
      <trkpt lat="51.830703" lon="8.311279">
        <ele>73.531325</ele>
        <time>2026-08-05T15:58:11.056Z</time>
      </trkpt>
      <trkpt lat="51.830552" lon="8.311692">
        <ele>73.476889</ele>
        <time>2026-08-05T15:58:18.469Z</time>
      </trkpt>
      <trkpt lat="51.830472" lon="8.311938">
        <ele>73.445354</ele>
        <time>2026-08-05T15:58:22.772Z</time>
      </trkpt>
      <trkpt lat="51.830469" lon="8.312044">
        <ele>73.433317</ele>
        <time>2026-08-05T15:58:24.456Z</time>
      </trkpt>
      <trkpt lat="51.830473" lon="8.312207">
        <ele>73.431590</ele>
        <time>2026-08-05T15:58:28.821Z</time>
      </trkpt>
      <trkpt lat="51.830458" lon="8.312673">
        <ele>73.452324</ele>
        <time>2026-08-05T15:58:36.274Z</time>
      </trkpt>
      <trkpt lat="51.830416" lon="8.313833">
        <ele>73.503957</ele>
        <time>2026-08-05T15:58:55.712Z</time>
      </trkpt>
      <trkpt lat="51.830412" lon="8.314225">
        <ele>73.521378</ele>
        <time>2026-08-05T15:59:02.373Z</time>
      </trkpt>
      <trkpt lat="51.830393" lon="8.315179">
        <ele>73.558924</ele>
        <time>2026-08-05T15:59:19.125Z</time>
      </trkpt>
      <trkpt lat="51.830351" lon="8.315374">
        <ele>73.562222</ele>
        <time>2026-08-05T15:59:22.730Z</time>
      </trkpt>
      <trkpt lat="51.830365" lon="8.316473">
        <ele>73.579779</ele>
        <time>2026-08-05T15:59:41.583Z</time>
      </trkpt>
      <trkpt lat="51.830369" lon="8.316775">
        <ele>73.584604</ele>
        <time>2026-08-05T15:59:46.518Z</time>
      </trkpt>
      <trkpt lat="51.830317" lon="8.316972">
        <ele>73.588025</ele>
        <time>2026-08-05T15:59:49.950Z</time>
      </trkpt>
      <trkpt lat="51.830483" lon="8.317873">
        <ele>73.599654</ele>
        <time>2026-08-05T16:00:06.420Z</time>
      </trkpt>
      <trkpt lat="51.831121" lon="8.319723">
        <ele>73.317652</ele>
        <time>2026-08-05T16:00:43.716Z</time>
      </trkpt>
      <trkpt lat="51.831241" lon="8.320345">
        <ele>73.230917</ele>
        <time>2026-08-05T16:00:55.479Z</time>
      </trkpt>
      <trkpt lat="51.831240" lon="8.320559">
        <ele>73.210221</ele>
        <time>2026-08-05T16:00:59.376Z</time>
      </trkpt>
      <trkpt lat="51.831217" lon="8.320757">
        <ele>73.199683</ele>
        <time>2026-08-05T16:01:03.037Z</time>
      </trkpt>
      <trkpt lat="51.831157" lon="8.320968">
        <ele>73.187534</ele>
        <time>2026-08-05T16:01:07.269Z</time>
      </trkpt>
      <trkpt lat="51.830982" lon="8.321351">
        <ele>73.162620</ele>
        <time>2026-08-05T16:01:15.976Z</time>
      </trkpt>
      <trkpt lat="51.830805" lon="8.321739">
        <ele>73.137395</ele>
        <time>2026-08-05T16:01:24.754Z</time>
      </trkpt>
      <trkpt lat="51.830175" lon="8.322547">
        <ele>73.069355</ele>
        <time>2026-08-05T16:01:48.367Z</time>
      </trkpt>
      <trkpt lat="51.830289" lon="8.322699">
        <ele>73.041460</ele>
        <time>2026-08-05T16:01:52.337Z</time>
      </trkpt>
      <trkpt lat="51.830570" lon="8.323071">
        <ele>72.934137</ele>
        <time>2026-08-05T16:02:01.551Z</time>
      </trkpt>
      <trkpt lat="51.830588" lon="8.323093">
        <ele>72.927468</ele>
        <time>2026-08-05T16:02:02.293Z</time>
      </trkpt>
      <trkpt lat="51.830611" lon="8.323010">
        <ele>72.910851</ele>
        <time>2026-08-05T16:02:09.213Z</time>
      </trkpt>
      <trkpt lat="51.830596" lon="8.322963">
        <ele>72.901188</ele>
        <time>2026-08-05T16:02:13.256Z</time>
      </trkpt>
      <trkpt lat="51.830579" lon="8.322942">
        <ele>72.894865</ele>
        <time>2026-08-05T16:02:13.972Z</time>
      </trkpt>
      <trkpt lat="51.830572" lon="8.322933">
        <ele>72.892222</ele>
        <time>2026-08-05T16:02:15.121Z</time>
      </trkpt>
      <trkpt lat="51.830546" lon="8.322903">
        <ele>72.882783</ele>
        <time>2026-08-05T16:02:16.179Z</time>
      </trkpt>
      <trkpt lat="51.830519" lon="8.322962">
        <ele>72.869371</ele>
        <time>2026-08-05T16:02:17.725Z</time>
      </trkpt>
      <trkpt lat="51.830497" lon="8.323009">
        <ele>72.858600</ele>
        <time>2026-08-05T16:02:18.931Z</time>
      </trkpt>
      <trkpt lat="51.829836" lon="8.324548">
        <ele>72.529734</ele>
        <time>2026-08-05T16:02:51.479Z</time>
      </trkpt>
      <trkpt lat="51.829672" lon="8.325012">
        <ele>72.519402</ele>
        <time>2026-08-05T16:03:00.881Z</time>
      </trkpt>
      <trkpt lat="51.829511" lon="8.325577">
        <ele>72.507376</ele>
        <time>2026-08-05T16:03:11.991Z</time>
      </trkpt>
      <trkpt lat="51.829000" lon="8.327762">
        <ele>72.699535</ele>
        <time>2026-08-05T16:03:55.778Z</time>
      </trkpt>
      <trkpt lat="51.828885" lon="8.328245">
        <ele>72.874175</ele>
        <time>2026-08-05T16:04:06.067Z</time>
      </trkpt>
      <trkpt lat="51.828647" lon="8.328959">
        <ele>73.147887</ele>
        <time>2026-08-05T16:04:22.488Z</time>
      </trkpt>
      <trkpt lat="51.828424" lon="8.329786">
        <ele>73.452323</ele>
        <time>2026-08-05T16:04:41.222Z</time>
      </trkpt>
      <trkpt lat="51.828401" lon="8.329774">
        <ele>73.465571</ele>
        <time>2026-08-05T16:04:41.966Z</time>
      </trkpt>
      <trkpt lat="51.828251" lon="8.329698">
        <ele>73.551939</ele>
        <time>2026-08-05T16:04:46.831Z</time>
      </trkpt>
      <trkpt lat="51.828231" lon="8.329689">
        <ele>73.563346</ele>
        <time>2026-08-05T16:04:47.440Z</time>
      </trkpt>
      <trkpt lat="51.828045" lon="8.330759">
        <ele>73.940808</ele>
        <time>2026-08-05T16:05:20.217Z</time>
      </trkpt>
      <trkpt lat="51.827984" lon="8.330934">
        <ele>74.009037</ele>
        <time>2026-08-05T16:05:26.033Z</time>
      </trkpt>
      <trkpt lat="51.826856" lon="8.331993">
        <ele>74.579127</ele>
        <time>2026-08-05T16:06:26.246Z</time>
      </trkpt>
      <trkpt lat="51.826338" lon="8.331998">
        <ele>74.714979</ele>
        <time>2026-08-05T16:06:50.083Z</time>
      </trkpt>
      <trkpt lat="51.826245" lon="8.331990">
        <ele>74.739404</ele>
        <time>2026-08-05T16:06:54.421Z</time>
      </trkpt>
      <trkpt lat="51.825893" lon="8.331799">
        <ele>74.836771</ele>
        <time>2026-08-05T16:07:11.521Z</time>
      </trkpt>
      <trkpt lat="51.825201" lon="8.331053">
        <ele>74.879043</ele>
        <time>2026-08-05T16:07:48.712Z</time>
      </trkpt>
      <trkpt lat="51.825124" lon="8.331310">
        <ele>74.866266</ele>
        <time>2026-08-05T16:07:53.330Z</time>
      </trkpt>
      <trkpt lat="51.824637" lon="8.332540">
        <ele>74.800922</ele>
        <time>2026-08-05T16:08:16.804Z</time>
      </trkpt>
      <trkpt lat="51.824324" lon="8.333392">
        <ele>74.746734</ele>
        <time>2026-08-05T16:08:32.732Z</time>
      </trkpt>
      <trkpt lat="51.823960" lon="8.334576">
        <ele>74.668349</ele>
        <time>2026-08-05T16:08:54.358Z</time>
      </trkpt>
      <trkpt lat="51.823937" lon="8.334646">
        <ele>74.663650</ele>
        <time>2026-08-05T16:08:55.641Z</time>
      </trkpt>
      <trkpt lat="51.823314" lon="8.336504">
        <ele>74.406920</ele>
        <time>2026-08-05T16:09:29.496Z</time>
      </trkpt>
      <trkpt lat="51.823025" lon="8.337274">
        <ele>74.261220</ele>
        <time>2026-08-05T16:09:43.705Z</time>
      </trkpt>
      <trkpt lat="51.823005" lon="8.337334">
        <ele>74.250195</ele>
        <time>2026-08-05T16:09:44.775Z</time>
      </trkpt>
      <trkpt lat="51.822725" lon="8.338150">
        <ele>74.110701</ele>
        <time>2026-08-05T16:09:59.412Z</time>
      </trkpt>
      <trkpt lat="51.822594" lon="8.338855">
        <ele>74.022296</ele>
        <time>2026-08-05T16:10:10.736Z</time>
      </trkpt>
      <trkpt lat="51.822557" lon="8.339299">
        <ele>73.968494</ele>
        <time>2026-08-05T16:10:17.557Z</time>
      </trkpt>
      <trkpt lat="51.822580" lon="8.340710">
        <ele>73.798991</ele>
        <time>2026-08-05T16:10:40.210Z</time>
      </trkpt>
      <trkpt lat="51.823597" lon="8.340644">
        <ele>74.077552</ele>
        <time>2026-08-05T16:11:08.746Z</time>
      </trkpt>
      <trkpt lat="51.823920" lon="8.340654">
        <ele>74.169654</ele>
        <time>2026-08-05T16:11:18.297Z</time>
      </trkpt>
      <trkpt lat="51.824049" lon="8.340709">
        <ele>74.207687</ele>
        <time>2026-08-05T16:11:22.277Z</time>
      </trkpt>
      <trkpt lat="51.824190" lon="8.340868">
        <ele>74.256685</ele>
        <time>2026-08-05T16:11:27.394Z</time>
      </trkpt>
      <trkpt lat="51.824555" lon="8.342624">
        <ele>74.295991</ele>
        <time>2026-08-05T16:11:59.173Z</time>
      </trkpt>
      <trkpt lat="51.824725" lon="8.343176">
        <ele>74.291631</ele>
        <time>2026-08-05T16:12:09.021Z</time>
      </trkpt>
      <trkpt lat="51.825080" lon="8.343988">
        <ele>74.243142</ele>
        <time>2026-08-05T16:12:24.269Z</time>
      </trkpt>
      <trkpt lat="51.825216" lon="8.344359">
        <ele>74.173360</ele>
        <time>2026-08-05T16:12:30.784Z</time>
      </trkpt>
      <trkpt lat="51.825289" lon="8.344841">
        <ele>74.093076</ele>
        <time>2026-08-05T16:12:38.396Z</time>
      </trkpt>
      <trkpt lat="51.825270" lon="8.345210">
        <ele>74.033173</ele>
        <time>2026-08-05T16:12:44.177Z</time>
      </trkpt>
      <trkpt lat="51.825198" lon="8.345859">
        <ele>73.926502</ele>
        <time>2026-08-05T16:12:54.736Z</time>
      </trkpt>
      <trkpt lat="51.825097" lon="8.346517">
        <ele>73.816818</ele>
        <time>2026-08-05T16:13:05.807Z</time>
      </trkpt>
      <trkpt lat="51.824782" lon="8.347870">
        <ele>73.765473</ele>
        <time>2026-08-05T16:13:29.906Z</time>
      </trkpt>
      <trkpt lat="51.824208" lon="8.349264">
        <ele>73.680261</ele>
        <time>2026-08-05T16:13:57.012Z</time>
      </trkpt>
      <trkpt lat="51.824116" lon="8.349568">
        <ele>73.624033</ele>
        <time>2026-08-05T16:14:02.436Z</time>
      </trkpt>
      <trkpt lat="51.824072" lon="8.349924">
        <ele>73.563725</ele>
        <time>2026-08-05T16:14:08.263Z</time>
      </trkpt>
      <trkpt lat="51.824080" lon="8.350272">
        <ele>73.505876</ele>
        <time>2026-08-05T16:14:13.807Z</time>
      </trkpt>
      <trkpt lat="51.824270" lon="8.351988">
        <ele>73.217794</ele>
        <time>2026-08-05T16:14:41.243Z</time>
      </trkpt>
      <trkpt lat="51.824386" lon="8.352583">
        <ele>73.125014</ele>
        <time>2026-08-05T16:14:50.524Z</time>
      </trkpt>
      <trkpt lat="51.824573" lon="8.353116">
        <ele>73.033872</ele>
        <time>2026-08-05T16:14:59.753Z</time>
      </trkpt>
      <trkpt lat="51.824942" lon="8.353903">
        <ele>72.886974</ele>
        <time>2026-08-05T16:15:15.162Z</time>
      </trkpt>
      <trkpt lat="51.825104" lon="8.354267">
        <ele>72.820271</ele>
        <time>2026-08-05T16:15:22.438Z</time>
      </trkpt>
      <trkpt lat="51.825928" lon="8.356154">
        <ele>73.591109</ele>
        <time>2026-08-05T16:16:04.774Z</time>
      </trkpt>
      <trkpt lat="51.826182" lon="8.356543">
        <ele>73.798862</ele>
        <time>2026-08-05T16:16:15.606Z</time>
      </trkpt>
      <trkpt lat="51.826721" lon="8.357228">
        <ele>74.154975</ele>
        <time>2026-08-05T16:16:36.416Z</time>
      </trkpt>
      <trkpt lat="51.827420" lon="8.357803">
        <ele>74.550795</ele>
        <time>2026-08-05T16:16:59.275Z</time>
      </trkpt>
      <trkpt lat="51.826951" lon="8.359104">
        <ele>74.846322</ele>
        <time>2026-08-05T16:18:03.980Z</time>
      </trkpt>
      <trkpt lat="51.826207" lon="8.361164">
        <ele>75.028311</ele>
        <time>2026-08-05T16:19:46.476Z</time>
      </trkpt>
      <trkpt lat="51.825466" lon="8.363646">
        <ele>74.908616</ele>
        <time>2026-08-05T16:20:31.266Z</time>
      </trkpt>
      <trkpt lat="51.825280" lon="8.364130">
        <ele>74.877970</ele>
        <time>2026-08-05T16:20:40.339Z</time>
      </trkpt>
      <trkpt lat="51.825241" lon="8.364110">
        <ele>74.874410</ele>
        <time>2026-08-05T16:20:41.390Z</time>
      </trkpt>
      <trkpt lat="51.824925" lon="8.363868">
        <ele>74.843994</ele>
        <time>2026-08-05T16:20:50.375Z</time>
      </trkpt>
      <trkpt lat="51.824774" lon="8.363828">
        <ele>74.830681</ele>
        <time>2026-08-05T16:20:54.317Z</time>
      </trkpt>
      <trkpt lat="51.823233" lon="8.363971">
        <ele>74.854465</ele>
        <time>2026-08-05T16:21:35.745Z</time>
      </trkpt>
      <trkpt lat="51.822722" lon="8.364012">
        <ele>74.923912</ele>
        <time>2026-08-05T16:21:50.294Z</time>
      </trkpt>
      <trkpt lat="51.822677" lon="8.364043">
        <ele>74.930550</ele>
        <time>2026-08-05T16:21:51.667Z</time>
      </trkpt>
      <trkpt lat="51.822539" lon="8.364333">
        <ele>74.961256</ele>
        <time>2026-08-05T16:21:57.953Z</time>
      </trkpt>
      <trkpt lat="51.822464" lon="8.364543">
        <ele>74.981604</ele>
        <time>2026-08-05T16:22:02.042Z</time>
      </trkpt>
      <trkpt lat="51.822216" lon="8.365356">
        <ele>74.901136</ele>
        <time>2026-08-05T16:22:16.812Z</time>
      </trkpt>
      <trkpt lat="51.821992" lon="8.365617">
        <ele>74.832721</ele>
        <time>2026-08-05T16:22:23.850Z</time>
      </trkpt>
      <trkpt lat="51.821856" lon="8.365871">
        <ele>74.781241</ele>
        <time>2026-08-05T16:22:29.058Z</time>
      </trkpt>
      <trkpt lat="51.821697" lon="8.366322">
        <ele>74.701703</ele>
        <time>2026-08-05T16:22:37.031Z</time>
      </trkpt>
      <trkpt lat="51.821651" lon="8.366492">
        <ele>74.673274</ele>
        <time>2026-08-05T16:22:39.900Z</time>
      </trkpt>
      <trkpt lat="51.821646" lon="8.366609">
        <ele>74.655308</ele>
        <time>2026-08-05T16:22:41.701Z</time>
      </trkpt>
      <trkpt lat="51.821727" lon="8.367687">
        <ele>74.533320</ele>
        <time>2026-08-05T16:22:58.690Z</time>
      </trkpt>
      <trkpt lat="51.821726" lon="8.367882">
        <ele>74.523068</ele>
        <time>2026-08-05T16:23:01.845Z</time>
      </trkpt>
      <trkpt lat="51.821534" lon="8.369187">
        <ele>74.452548</ele>
        <time>2026-08-05T16:23:24.010Z</time>
      </trkpt>
      <trkpt lat="51.821149" lon="8.371048">
        <ele>74.509310</ele>
        <time>2026-08-05T16:23:56.208Z</time>
      </trkpt>
      <trkpt lat="51.820804" lon="8.372715">
        <ele>74.689861</ele>
        <time>2026-08-05T16:24:26.272Z</time>
      </trkpt>
      <trkpt lat="51.820747" lon="8.373100">
        <ele>74.788203</ele>
        <time>2026-08-05T16:24:33.395Z</time>
      </trkpt>
      <trkpt lat="51.820804" lon="8.375769">
        <ele>75.615160</ele>
        <time>2026-08-05T16:25:21.924Z</time>
      </trkpt>
      <trkpt lat="51.820772" lon="8.375862">
        <ele>75.619038</ele>
        <time>2026-08-05T16:25:23.814Z</time>
      </trkpt>
      <trkpt lat="51.820777" lon="8.375934">
        <ele>75.621678</ele>
        <time>2026-08-05T16:25:25.137Z</time>
      </trkpt>
      <trkpt lat="51.820271" lon="8.376091">
        <ele>75.652048</ele>
        <time>2026-08-05T16:25:39.711Z</time>
      </trkpt>
      <trkpt lat="51.819713" lon="8.376276">
        <ele>75.685624</ele>
        <time>2026-08-05T16:25:54.881Z</time>
      </trkpt>
      <trkpt lat="51.819609" lon="8.376345">
        <ele>75.692249</ele>
        <time>2026-08-05T16:25:57.751Z</time>
      </trkpt>
      <trkpt lat="51.819396" lon="8.376485">
        <ele>75.705802</ele>
        <time>2026-08-05T16:26:03.621Z</time>
      </trkpt>
      <trkpt lat="51.818243" lon="8.377479">
        <ele>75.451617</ele>
        <time>2026-08-05T16:26:36.885Z</time>
      </trkpt>
      <trkpt lat="51.816307" lon="8.379153">
        <ele>75.140869</ele>
        <time>2026-08-05T16:27:33.683Z</time>
      </trkpt>
      <trkpt lat="51.815118" lon="8.380108">
        <ele>75.315963</ele>
        <time>2026-08-05T16:28:10.345Z</time>
      </trkpt>
      <trkpt lat="51.814788" lon="8.380363">
        <ele>75.391181</ele>
        <time>2026-08-05T16:28:20.550Z</time>
      </trkpt>
      <trkpt lat="51.814384" lon="8.380671">
        <ele>75.482660</ele>
        <time>2026-08-05T16:28:32.942Z</time>
      </trkpt>
      <trkpt lat="51.813918" lon="8.380990">
        <ele>75.555669</ele>
        <time>2026-08-05T16:28:47.018Z</time>
      </trkpt>
      <trkpt lat="51.813894" lon="8.381237">
        <ele>75.577971</ele>
        <time>2026-08-05T16:28:51.687Z</time>
      </trkpt>
      <trkpt lat="51.813669" lon="8.381827">
        <ele>75.639805</ele>
        <time>2026-08-05T16:29:04.463Z</time>
      </trkpt>
      <trkpt lat="51.811784" lon="8.386669">
        <ele>76.248221</ele>
        <time>2026-08-05T16:30:52.698Z</time>
      </trkpt>
      <trkpt lat="51.811611" lon="8.387028">
        <ele>76.289836</ele>
        <time>2026-08-05T16:31:01.240Z</time>
      </trkpt>
      <trkpt lat="51.811386" lon="8.387407">
        <ele>76.337875</ele>
        <time>2026-08-05T16:31:11.035Z</time>
      </trkpt>
      <trkpt lat="51.811009" lon="8.387929">
        <ele>76.266929</ele>
        <time>2026-08-05T16:31:25.658Z</time>
      </trkpt>
      <trkpt lat="51.810779" lon="8.388447">
        <ele>76.157582</ele>
        <time>2026-08-05T16:31:36.891Z</time>
      </trkpt>
      <trkpt lat="51.810623" lon="8.388908">
        <ele>76.067474</ele>
        <time>2026-08-05T16:31:46.016Z</time>
      </trkpt>
      <trkpt lat="51.810538" lon="8.389381">
        <ele>75.983017</ele>
        <time>2026-08-05T16:31:54.490Z</time>
      </trkpt>
      <trkpt lat="51.810498" lon="8.389766">
        <ele>75.916080</ele>
        <time>2026-08-05T16:32:01.157Z</time>
      </trkpt>
      <trkpt lat="51.810481" lon="8.390272">
        <ele>75.845514</ele>
        <time>2026-08-05T16:32:09.842Z</time>
      </trkpt>
      <trkpt lat="51.810633" lon="8.391210">
        <ele>75.761323</ele>
        <time>2026-08-05T16:32:26.705Z</time>
      </trkpt>
      <trkpt lat="51.810822" lon="8.392093">
        <ele>75.680194</ele>
        <time>2026-08-05T16:32:43.635Z</time>
      </trkpt>
      <trkpt lat="51.810932" lon="8.392765">
        <ele>75.619839</ele>
        <time>2026-08-05T16:32:56.609Z</time>
      </trkpt>
      <trkpt lat="51.811002" lon="8.393801">
        <ele>75.621618</ele>
        <time>2026-08-05T16:33:16.156Z</time>
      </trkpt>
      <trkpt lat="51.810988" lon="8.394306">
        <ele>75.628146</ele>
        <time>2026-08-05T16:33:25.533Z</time>
      </trkpt>
      <trkpt lat="51.810921" lon="8.394812">
        <ele>75.634828</ele>
        <time>2026-08-05T16:33:35.080Z</time>
      </trkpt>
      <trkpt lat="51.810561" lon="8.396476">
        <ele>75.578811</ele>
        <time>2026-08-05T16:34:07.182Z</time>
      </trkpt>
      <trkpt lat="51.810451" lon="8.397080">
        <ele>75.525072</ele>
        <time>2026-08-05T16:34:18.382Z</time>
      </trkpt>
      <trkpt lat="51.810385" lon="8.397577">
        <ele>75.481688</ele>
        <time>2026-08-05T16:34:27.396Z</time>
      </trkpt>
      <trkpt lat="51.810356" lon="8.398509">
        <ele>75.402044</ele>
        <time>2026-08-05T16:34:43.866Z</time>
      </trkpt>
      <trkpt lat="51.810425" lon="8.399480">
        <ele>75.394532</ele>
        <time>2026-08-05T16:35:01.352Z</time>
      </trkpt>
      <trkpt lat="51.810524" lon="8.400082">
        <ele>75.391607</ele>
        <time>2026-08-05T16:35:12.708Z</time>
      </trkpt>
      <trkpt lat="51.810678" lon="8.400672">
        <ele>75.388599</ele>
        <time>2026-08-05T16:35:24.576Z</time>
      </trkpt>
      <trkpt lat="51.811005" lon="8.401701">
        <ele>75.463910</ele>
        <time>2026-08-05T16:35:46.474Z</time>
      </trkpt>
      <trkpt lat="51.811191" lon="8.402368">
        <ele>75.591097</ele>
        <time>2026-08-05T16:36:00.566Z</time>
      </trkpt>
      <trkpt lat="51.811310" lon="8.403110">
        <ele>75.724340</ele>
        <time>2026-08-05T16:36:15.386Z</time>
      </trkpt>
      <trkpt lat="51.811391" lon="8.404035">
        <ele>75.886728</ele>
        <time>2026-08-05T16:36:33.466Z</time>
      </trkpt>
      <trkpt lat="51.811442" lon="8.405832">
        <ele>76.077672</ele>
        <time>2026-08-05T16:37:07.621Z</time>
      </trkpt>
      <trkpt lat="51.811535" lon="8.406877">
        <ele>76.188753</ele>
        <time>2026-08-05T16:37:27.216Z</time>
      </trkpt>
      <trkpt lat="51.811853" lon="8.408338">
        <ele>76.148980</ele>
        <time>2026-08-05T16:37:55.661Z</time>
      </trkpt>
      <trkpt lat="51.811881" lon="8.408615">
        <ele>76.139798</ele>
        <time>2026-08-05T16:38:00.761Z</time>
      </trkpt>
      <trkpt lat="51.811955" lon="8.409218">
        <ele>76.119687</ele>
        <time>2026-08-05T16:38:11.824Z</time>
      </trkpt>
      <trkpt lat="51.811960" lon="8.410361">
        <ele>76.152530</ele>
        <time>2026-08-05T16:38:32.065Z</time>
      </trkpt>
      <trkpt lat="51.811934" lon="8.410614">
        <ele>76.174207</ele>
        <time>2026-08-05T16:38:36.666Z</time>
      </trkpt>
      <trkpt lat="51.811912" lon="8.410893">
        <ele>76.197979</ele>
        <time>2026-08-05T16:38:41.229Z</time>
      </trkpt>
      <trkpt lat="51.811884" lon="8.411145">
        <ele>76.219620</ele>
        <time>2026-08-05T16:38:45.405Z</time>
      </trkpt>
      <trkpt lat="51.811867" lon="8.411281">
        <ele>76.231347</ele>
        <time>2026-08-05T16:38:47.678Z</time>
      </trkpt>
      <trkpt lat="51.811589" lon="8.412995">
        <ele>76.435805</ele>
        <time>2026-08-05T16:39:22.234Z</time>
      </trkpt>
      <trkpt lat="51.811579" lon="8.413077">
        <ele>76.454460</ele>
        <time>2026-08-05T16:39:23.976Z</time>
      </trkpt>
      <trkpt lat="51.811448" lon="8.414077">
        <ele>76.682611</ele>
        <time>2026-08-05T16:39:44.966Z</time>
      </trkpt>
      <trkpt lat="51.811433" lon="8.414470">
        <ele>76.770494</ele>
        <time>2026-08-05T16:39:52.738Z</time>
      </trkpt>
      <trkpt lat="51.811447" lon="8.415247">
        <ele>76.943991</ele>
        <time>2026-08-05T16:40:07.351Z</time>
      </trkpt>
      <trkpt lat="51.811491" lon="8.415680">
        <ele>76.955064</ele>
        <time>2026-08-05T16:40:15.272Z</time>
      </trkpt>
      <trkpt lat="51.811653" lon="8.416479">
        <ele>76.778940</ele>
        <time>2026-08-05T16:40:29.962Z</time>
      </trkpt>
      <trkpt lat="51.811944" lon="8.417755">
        <ele>76.494073</ele>
        <time>2026-08-05T16:40:53.271Z</time>
      </trkpt>
      <trkpt lat="51.811969" lon="8.418216">
        <ele>76.397145</ele>
        <time>2026-08-05T16:41:01.282Z</time>
      </trkpt>
      <trkpt lat="51.811961" lon="8.418947">
        <ele>76.308750</ele>
        <time>2026-08-05T16:41:13.949Z</time>
      </trkpt>
      <trkpt lat="51.811919" lon="8.419306">
        <ele>76.266687</ele>
        <time>2026-08-05T16:41:20.259Z</time>
      </trkpt>
      <trkpt lat="51.812168" lon="8.419371">
        <ele>76.219720</ele>
        <time>2026-08-05T16:41:31.192Z</time>
      </trkpt>
      <trkpt lat="51.812802" lon="8.419156">
        <ele>76.099096</ele>
        <time>2026-08-05T16:41:49.832Z</time>
      </trkpt>
      <trkpt lat="51.812830" lon="8.419353">
        <ele>76.075825</ele>
        <time>2026-08-05T16:41:53.149Z</time>
      </trkpt>
      <trkpt lat="51.813032" lon="8.420934">
        <ele>76.501355</ele>
        <time>2026-08-05T16:42:30.009Z</time>
      </trkpt>
      <trkpt lat="51.813039" lon="8.420992">
        <ele>76.520091</ele>
        <time>2026-08-05T16:42:31.416Z</time>
      </trkpt>
      <trkpt lat="51.813098" lon="8.421476">
        <ele>76.676495</ele>
        <time>2026-08-05T16:42:40.910Z</time>
      </trkpt>
      <trkpt lat="51.813125" lon="8.421546">
        <ele>76.702653</ele>
        <time>2026-08-05T16:42:42.477Z</time>
      </trkpt>
      <trkpt lat="51.813302" lon="8.421725">
        <ele>76.809703</ele>
        <time>2026-08-05T16:42:48.900Z</time>
      </trkpt>
      <trkpt lat="51.813571" lon="8.422439">
        <ele>77.003756</ele>
        <time>2026-08-05T16:43:04.314Z</time>
      </trkpt>
      <trkpt lat="51.813629" lon="8.422501">
        <ele>77.013972</ele>
        <time>2026-08-05T16:43:06.323Z</time>
      </trkpt>
      <trkpt lat="51.813728" lon="8.422203">
        <ele>77.044707</ele>
        <time>2026-08-05T16:43:12.254Z</time>
      </trkpt>
      <trkpt lat="51.813775" lon="8.422237">
        <ele>77.052273</ele>
        <time>2026-08-05T16:43:13.668Z</time>
      </trkpt>
      <trkpt lat="51.813916" lon="8.422264">
        <ele>77.073139</ele>
        <time>2026-08-05T16:43:17.631Z</time>
      </trkpt>
      <trkpt lat="51.814278" lon="8.422148">
        <ele>77.127370</ele>
        <time>2026-08-05T16:43:27.706Z</time>
      </trkpt>
      <trkpt lat="51.814866" lon="8.422181">
        <ele>77.213832</ele>
        <time>2026-08-05T16:43:43.098Z</time>
      </trkpt>
      <trkpt lat="51.815491" lon="8.422219">
        <ele>77.274742</ele>
        <time>2026-08-05T16:43:59.049Z</time>
      </trkpt>
      <trkpt lat="51.815806" lon="8.422249">
        <ele>77.299398</ele>
        <time>2026-08-05T16:44:07.377Z</time>
      </trkpt>
      <trkpt lat="51.816385" lon="8.422296">
        <ele>77.344696</ele>
        <time>2026-08-05T16:44:23.499Z</time>
      </trkpt>
      <trkpt lat="51.816393" lon="8.422456">
        <ele>77.352450</ele>
        <time>2026-08-05T16:44:26.249Z</time>
      </trkpt>
      <trkpt lat="51.816417" lon="8.422549">
        <ele>77.357317</ele>
        <time>2026-08-05T16:44:27.979Z</time>
      </trkpt>
      <trkpt lat="51.816426" lon="8.422586">
        <ele>77.359238</ele>
        <time>2026-08-05T16:44:28.656Z</time>
      </trkpt>
      <trkpt lat="51.816770" lon="8.423500">
        <ele>77.403570</ele>
        <time>2026-08-05T16:44:47.130Z</time>
      </trkpt>
      <trkpt lat="51.817402" lon="8.424998">
        <ele>77.470280</ele>
        <time>2026-08-05T16:45:17.701Z</time>
      </trkpt>
      <trkpt lat="51.817543" lon="8.425209">
        <ele>77.481709</ele>
        <time>2026-08-05T16:45:22.616Z</time>
      </trkpt>
      <trkpt lat="51.817935" lon="8.425605">
        <ele>77.443117</ele>
        <time>2026-08-05T16:45:34.324Z</time>
      </trkpt>
      <trkpt lat="51.818076" lon="8.425716">
        <ele>77.424547</ele>
        <time>2026-08-05T16:45:41.095Z</time>
      </trkpt>
      <trkpt lat="51.818464" lon="8.425882">
        <ele>77.377017</ele>
        <time>2026-08-05T16:45:58.372Z</time>
      </trkpt>
      <trkpt lat="51.818729" lon="8.426147">
        <ele>77.340122</ele>
        <time>2026-08-05T16:46:11.936Z</time>
      </trkpt>
      <trkpt lat="51.818910" lon="8.426242">
        <ele>77.317587</ele>
        <time>2026-08-05T16:46:20.331Z</time>
      </trkpt>
      <trkpt lat="51.819292" lon="8.426371">
        <ele>77.281593</ele>
        <time>2026-08-05T16:46:37.887Z</time>
      </trkpt>
      <trkpt lat="51.818892" lon="8.427613">
        <ele>77.563444</ele>
        <time>2026-08-05T16:47:17.778Z</time>
      </trkpt>
      <trkpt lat="51.818774" lon="8.428103">
        <ele>77.669279</ele>
        <time>2026-08-05T16:47:32.962Z</time>
      </trkpt>
      <trkpt lat="51.818647" lon="8.428769">
        <ele>77.809548</ele>
        <time>2026-08-05T16:47:53.019Z</time>
      </trkpt>
      <trkpt lat="51.818488" lon="8.429866">
        <ele>77.859698</ele>
        <time>2026-08-05T16:48:25.343Z</time>
      </trkpt>
      <trkpt lat="51.818332" lon="8.429853">
        <ele>77.859698</ele>
        <time>2026-08-05T16:48:31.025Z</time>
      </trkpt>
      <trkpt lat="51.818331" lon="8.429951">
        <ele>77.859698</ele>
        <time>2026-08-05T16:48:33.210Z</time>
      </trkpt>
      <trkpt lat="51.818329" lon="8.430039">
        <ele>77.859698</ele>
        <time>2026-08-05T16:48:34.771Z</time>
      </trkpt>
      <trkpt lat="51.818384" lon="8.430046">
        <ele>77.859698</ele>
        <time>2026-08-05T16:48:36.741Z</time>
      </trkpt>
      <trkpt lat="51.818380" lon="8.430243">
        <ele>77.859698</ele>
        <time>2026-08-05T16:48:40.159Z</time>
      </trkpt>
    </trkseg>
  </trk>
</gpx>